M I D A S
Marine Information and Data Acquisition System
Tripno 1706 of the Zeeleeuw from 2009-06-05 06:34:45 to 2009-06-05 17:00:00
Back to CruiseResearch ActivitiesStationsMapUnderway DataData graphs

EquipmentUnitsComment
TimeDGPSUTC
LatitudeDGPSDM.mWGS84
LongitudeDGPSDM.mWGS84
TemperatureSBE03/SBE38deg celciusITS90
ConductivitySBE21S/mITS90
SalinitySBE21 Practical Salinity Units
ChlorophylAChelsea fluorimeterg/lCalibrated in Aceton
Missing or incorrect values are displayed as -999
Sea surface data collected by the RV Zeeleeuw from 2009-06-05 05:51:51 to 2009-06-05 16:52:22
                                                                                    Next 1000 lines
Time Latitude Longitude Temperature Conductivity Salinity ChlorophylA
2009-06-05 05:52:01 51°13.66 2°55.958 20.0775 0.028315 0.153994 -0.443383
2009-06-05 05:52:06 51°13.66 2°55.958 20.076 0.028315 0.153991 -0.443383
2009-06-05 05:52:11 51°13.66 2°55.958 20.0688 0.028418 0.154558 -0.478207
2009-06-05 05:52:16 51°13.66 2°55.958 20.0666 0.028521 0.155117 -0.478207
2009-06-05 05:52:21 51°13.66 2°55.958 20.0714 0.028521 0.155117 -0.443383
2009-06-05 05:52:26 51°13.66 2°55.958 20.0726 0.028521 0.155117 -0.443383
2009-06-05 05:52:31 51°13.66 2°55.958 20.075 0.028521 0.155117 -0.443383
2009-06-05 05:52:36 51°13.66 2°55.958 20.0735 0.028418 0.154556 -0.478207
2009-06-05 05:52:41 51°13.66 2°55.958 20.0692 0.028418 0.154556 -0.443383
2009-06-05 05:52:46 51°13.66 2°55.958 20.0729 0.028521 0.155117 -0.443383
2009-06-05 05:52:51 51°13.661 2°55.958 20.0671 0.028418 0.154556 -0.443383
2009-06-05 05:52:56 51°13.661 2°55.958 20.0729 0.028418 0.154556 -0.443383
2009-06-05 05:53:01 51°13.661 2°55.958 20.0807 0.028418 0.154556 -0.443383
2009-06-05 05:53:06 51°13.661 2°55.958 20.0744 0.028521 0.155117 -0.443383
2009-06-05 05:53:11 51°13.661 2°55.958 20.0672 0.028521 0.155117 -0.443383
2009-06-05 05:53:16 51°13.661 2°55.958 20.0729 0.028521 0.155117 -0.443383
2009-06-05 05:53:21 51°13.662 2°55.958 20.0776 0.02883 0.156803 -0.443383
2009-06-05 05:53:26 51°13.662 2°55.958 20.08 0.02883 0.156803 -0.443383
2009-06-05 05:53:31 51°13.662 2°55.958 20.0748 0.028933 0.157367 -0.443383
2009-06-05 05:53:36 51°13.662 2°55.958 20.0698 0.02883 0.156805 -0.443383
2009-06-05 05:53:41 51°13.662 2°55.958 20.0702 0.028624 0.155681 -0.443383
2009-06-05 05:53:46 51°13.662 2°55.958 20.0663 0.028624 0.155681 -0.443383
2009-06-05 05:53:51 51°13.662 2°55.958 20.0666 0.028521 0.15512 -0.443383
2009-06-05 05:53:56 51°13.662 2°55.959 20.0667 0.028521 0.15512 -0.443383
2009-06-05 05:54:01 51°13.662 2°55.959 20.0715 0.028624 0.155681 -0.443383
2009-06-05 05:54:06 51°13.662 2°55.959 20.0735 0.028624 0.155684 -0.443383
2009-06-05 05:54:11 51°13.662 2°55.959 20.0762 0.02883 0.156808 -0.443383
2009-06-05 05:54:16 51°13.662 2°55.959 20.0762 0.028933 0.15737 -0.443383
2009-06-05 05:54:21 51°13.662 2°55.959 20.0821 0.028933 0.15737 -0.478207
2009-06-05 05:54:26 51°13.662 2°55.959 20.0799 0.028933 0.15737 -0.478207
2009-06-05 05:54:31 51°13.662 2°55.959 20.0674 0.028727 0.156246 -0.478207
2009-06-05 05:54:36 51°13.662 2°55.959 20.0737 0.028521 0.155122 -0.443383
2009-06-05 05:54:41 51°13.662 2°55.959 20.0799 0.028521 0.155122 -0.443383
2009-06-05 05:54:46 51°13.662 2°55.959 20.0693 0.028521 0.155122 -0.443383
2009-06-05 05:54:51 51°13.662 2°55.959 20.0829 0.02883 0.15681 -0.443383
2009-06-05 05:54:56 51°13.662 2°55.959 20.0781 0.02883 0.156808 -0.443383
2009-06-05 05:55:01 51°13.662 2°55.959 20.0786 0.02883 0.156808 -0.443383
2009-06-05 05:55:06 51°13.662 2°55.959 20.08 0.028933 0.157372 -0.443383
2009-06-05 05:55:11 51°13.662 2°55.959 20.0768 0.028727 0.156249 -0.478207
2009-06-05 05:55:16 51°13.662 2°55.96 20.0707 0.028727 0.156249 -0.443383
2009-06-05 05:55:21 51°13.662 2°55.96 20.0739 0.028727 0.156249 -0.443383
2009-06-05 05:55:26 51°13.662 2°55.96 20.0746 0.028624 0.155687 -0.443383
2009-06-05 05:55:31 51°13.662 2°55.96 20.069 0.028624 0.155687 -0.443383
2009-06-05 05:55:36 51°13.663 2°55.96 20.0778 0.02883 0.15681 -0.478207
2009-06-05 05:55:42 51°13.663 2°55.96 20.0766 0.028933 0.157372 -0.443383
2009-06-05 05:55:46 51°13.663 2°55.96 20.0748 0.028933 0.157372 -0.443383
2009-06-05 05:55:51 51°13.663 2°55.96 20.0788 0.028933 0.157372 -0.478207
2009-06-05 05:55:56 51°13.663 2°55.96 20.0794 0.02883 0.156813 -0.443383
2009-06-05 05:56:02 51°13.663 2°55.96 20.0773 0.02883 0.156813 -0.443383
2009-06-05 05:56:06 51°13.663 2°55.96 20.0868 0.028624 0.155687 -0.443383
2009-06-05 05:56:11 51°13.663 2°55.96 20.0836 0.028521 0.155125 -0.443383
2009-06-05 05:56:16 51°13.663 2°55.96 20.0869 0.028624 0.155687 -0.443383
2009-06-05 05:56:21 51°13.663 2°55.96 20.0898 0.028727 0.156249 -0.478207
2009-06-05 05:56:26 51°13.663 2°55.96 20.0889 0.028727 0.156249 -0.478207
2009-06-05 05:56:31 51°13.663 2°55.96 20.0945 0.02883 0.156813 -0.443383
2009-06-05 05:56:36 51°13.663 2°55.96 20.0894 0.029036 0.157937 -0.443383
2009-06-05 05:56:41 51°13.663 2°55.96 20.0882 0.029139 0.158502 -0.478207
2009-06-05 05:56:46 51°13.663 2°55.96 20.0859 0.029036 0.157937 -0.478207
2009-06-05 05:56:51 51°13.663 2°55.96 20.0875 0.02883 0.156813 -0.443383
2009-06-05 05:56:56 51°13.663 2°55.96 20.0869 0.02883 0.156813 -0.443383
2009-06-05 05:57:01 51°13.663 2°55.96 20.0739 0.028624 0.155689 -0.443383
2009-06-05 05:57:06 51°13.663 2°55.96 20.0851 0.028624 0.155689 -0.443383
2009-06-05 05:57:11 51°13.663 2°55.96 20.0813 0.028727 0.156254 -0.443383
2009-06-05 05:57:15 51°13.663 2°55.96 20.0717 0.028727 0.156254 -0.443383
2009-06-05 05:57:20 51°13.663 2°55.96 20.0873 0.028933 0.157378 -0.478207
2009-06-05 05:57:26 51°13.662 2°55.96 20.0956 0.02883 0.156816 -0.443383
2009-06-05 05:57:31 51°13.662 2°55.96 20.0918 0.02883 0.156816 -0.443383
2009-06-05 05:57:36 51°13.662 2°55.96 20.0928 0.02883 0.156816 -0.443383
2009-06-05 05:57:41 51°13.662 2°55.96 20.0895 0.028727 0.156254 -0.443383
2009-06-05 05:57:46 51°13.662 2°55.96 20.089 0.028727 0.156254 -0.443383
2009-06-05 05:57:51 51°13.662 2°55.96 20.0891 0.028727 0.156254 -0.478207
2009-06-05 05:57:55 51°13.662 2°55.96 20.0903 0.028933 0.157378 -0.478207
2009-06-05 05:58:00 51°13.662 2°55.96 20.0892 0.028933 0.157378 -0.478207
2009-06-05 05:58:05 51°13.662 2°55.96 20.0891 0.028933 0.157378 -0.443383
2009-06-05 05:58:11 51°13.663 2°55.96 20.0894 0.028933 0.15738 -0.478207
2009-06-05 05:58:16 51°13.663 2°55.961 20.0912 0.029036 0.157943 -0.443383
2009-06-05 05:58:21 51°13.663 2°55.96 20.0906 0.028727 0.156256 -0.443383
2009-06-05 05:58:26 51°13.663 2°55.96 20.0874 0.028727 0.156256 -0.443383
2009-06-05 05:58:31 51°13.663 2°55.961 20.0881 0.028727 0.156256 -0.443383
2009-06-05 05:58:36 51°13.662 2°55.961 20.0909 0.028727 0.156256 -0.443383
2009-06-05 05:58:40 51°13.662 2°55.961 20.1061 0.028727 0.156256 -0.443383
2009-06-05 05:58:45 51°13.662 2°55.961 20.1063 0.029036 0.157943 -0.443383
2009-06-05 05:58:51 51°13.662 2°55.961 20.093 0.029036 0.15794 -0.478207
2009-06-05 05:58:56 51°13.663 2°55.96 20.0895 0.029139 0.158505 -0.443383
2009-06-05 05:59:01 51°13.663 2°55.96 20.0845 0.029139 0.158505 -0.443383
2009-06-05 05:59:06 51°13.663 2°55.96 20.0903 0.02883 0.156818 -0.443383
2009-06-05 05:59:11 51°13.663 2°55.96 20.092 0.02883 0.156818 -0.443383
2009-06-05 05:59:16 51°13.662 2°55.96 20.0927 0.02883 0.156818 -0.443383
2009-06-05 05:59:21 51°13.662 2°55.96 20.0959 0.02883 0.156818 -0.478207
2009-06-05 05:59:26 51°13.662 2°55.96 20.0801 0.02883 0.156818 -0.478207
2009-06-05 05:59:31 51°13.662 2°55.96 20.0711 0.02883 0.156816 -0.443383
2009-06-05 05:59:36 51°13.662 2°55.96 20.0855 0.028933 0.157378 -0.478207
2009-06-05 05:59:41 51°13.663 2°55.96 20.085 0.028933 0.15738 -0.443383
2009-06-05 05:59:46 51°13.662 2°55.96 20.0815 0.029036 0.157943 -0.443383
2009-06-05 05:59:51 51°13.662 2°55.96 20.0823 0.029139 0.158505 -0.443383
2009-06-05 05:59:56 51°13.662 2°55.96 20.0851 0.029139 0.158505 -0.443383
2009-06-05 06:00:01 51°13.662 2°55.96 20.0852 0.029139 0.158505 -0.443383
2009-06-05 06:00:06 51°13.663 2°55.96 20.0919 0.029139 0.158505 -0.443383
2009-06-05 06:00:11 51°13.663 2°55.959 20.0919 0.029036 0.157943 -0.443383
2009-06-05 06:00:16 51°13.663 2°55.959 20.096 0.029036 0.157943 -0.443383
2009-06-05 06:00:21 51°13.663 2°55.959 20.0927 0.029139 0.158508 -0.478207
2009-06-05 06:00:26 51°13.663 2°55.959 20.0846 0.029139 0.158508 -0.478207
2009-06-05 06:00:31 51°13.663 2°55.959 20.0865 0.029241 0.15907 -0.478207
2009-06-05 06:00:36 51°13.663 2°55.959 20.0905 0.029447 0.160192 -0.443383
2009-06-05 06:00:41 51°13.662 2°55.96 20.0933 0.029241 0.15907 -0.443383
2009-06-05 06:00:46 51°13.662 2°55.959 20.0826 0.029241 0.15907 -0.478207
2009-06-05 06:00:51 51°13.662 2°55.96 20.0826 0.029036 0.157943 -0.443383
2009-06-05 06:00:56 51°13.662 2°55.959 20.0995 0.029036 0.157943 -0.443383
2009-06-05 06:01:01 51°13.662 2°55.959 20.091 0.029036 0.157943 -0.443383
2009-06-05 06:01:06 51°13.662 2°55.959 20.0953 0.028933 0.15738 -0.478207
2009-06-05 06:01:12 51°13.662 2°55.96 20.0946 0.028933 0.15738 -0.478207
2009-06-05 06:01:16 51°13.662 2°55.96 20.0951 0.029139 0.158505 -0.478207
2009-06-05 06:01:21 51°13.662 2°55.959 20.0862 0.029241 0.15907 -0.443383
2009-06-05 06:01:26 51°13.662 2°55.959 20.0916 0.029241 0.15907 -0.443383
2009-06-05 06:01:31 51°13.662 2°55.959 20.0918 0.029344 0.159632 -0.478207
2009-06-05 06:01:36 51°13.662 2°55.96 20.0882 0.029344 0.159632 -0.443383
2009-06-05 06:01:41 51°13.662 2°55.96 20.0931 0.029241 0.159067 -0.443383
2009-06-05 06:01:46 51°13.662 2°55.96 20.0866 0.029139 0.158508 -0.443383
2009-06-05 06:01:51 51°13.662 2°55.96 20.0986 0.029139 0.158508 -0.443383
2009-06-05 06:01:56 51°13.662 2°55.96 20.0889 0.029139 0.158505 -0.443383
2009-06-05 06:02:01 51°13.662 2°55.96 20.0913 0.029139 0.158505 -0.443383
2009-06-05 06:02:06 51°13.662 2°55.96 20.0984 0.029139 0.158508 -0.443383
2009-06-05 06:02:11 51°13.662 2°55.96 20.0959 0.029344 0.159632 -0.443383
2009-06-05 06:02:16 51°13.662 2°55.96 20.0932 0.029241 0.15907 -0.443383
2009-06-05 06:02:21 51°13.662 2°55.96 20.0921 0.029241 0.159067 -0.478207
2009-06-05 06:02:26 51°13.662 2°55.96 20.0894 0.029241 0.159067 -0.478207
2009-06-05 06:02:32 51°13.662 2°55.96 20.0915 0.029241 0.15907 -0.443383
2009-06-05 06:02:36 51°13.662 2°55.96 20.0863 0.029139 0.158505 -0.443383
2009-06-05 06:02:41 51°13.662 2°55.96 20.0945 0.029139 0.158505 -0.443383
2009-06-05 06:02:46 51°13.662 2°55.96 20.099 0.029139 0.158505 -0.443383
2009-06-05 06:02:51 51°13.662 2°55.96 20.0954 0.029139 0.158505 -0.443383
2009-06-05 06:02:56 51°13.662 2°55.96 20.0932 0.029241 0.159067 -0.443383
2009-06-05 06:03:02 51°13.662 2°55.96 20.098 0.029241 0.159067 -0.443383
2009-06-05 06:03:06 51°13.662 2°55.96 20.0945 0.029344 0.15963 -0.443383
2009-06-05 06:03:11 51°13.662 2°55.96 20.0949 0.029241 0.15907 -0.443383
2009-06-05 06:03:16 51°13.662 2°55.96 20.0926 0.029344 0.159632 -0.443383
2009-06-05 06:03:21 51°13.662 2°55.96 20.0928 0.029344 0.159632 -0.443383
2009-06-05 06:03:26 51°13.662 2°55.96 20.0982 0.029447 0.160192 -0.443383
2009-06-05 06:03:31 51°13.662 2°55.96 20.0987 0.029447 0.160192 -0.443383
2009-06-05 06:03:36 51°13.662 2°55.96 20.0979 0.02955 0.160758 -0.443383
2009-06-05 06:03:42 51°13.662 2°55.96 20.1017 0.029344 0.15963 -0.443383
2009-06-05 06:03:46 51°13.662 2°55.96 20.1024 0.029241 0.159067 -0.478207
2009-06-05 06:03:51 51°13.662 2°55.96 20.097 0.029139 0.158508 -0.478207
2009-06-05 06:03:56 51°13.662 2°55.96 20.0912 0.029139 0.158508 -0.443383
2009-06-05 06:04:01 51°13.662 2°55.96 20.0968 0.029139 0.158508 -0.443383
2009-06-05 06:04:06 51°13.663 2°55.959 20.0981 0.029344 0.159632 -0.443383
2009-06-05 06:04:11 51°13.663 2°55.959 20.0949 0.029344 0.15963 -0.443383
2009-06-05 06:04:16 51°13.663 2°55.959 20.0963 0.029344 0.15963 -0.478207
2009-06-05 06:04:21 51°13.663 2°55.959 20.0977 0.029344 0.15963 -0.443383
2009-06-05 06:04:26 51°13.663 2°55.959 20.1025 0.029344 0.15963 -0.443383
2009-06-05 06:04:31 51°13.663 2°55.959 20.0984 0.029241 0.159067 -0.478207
2009-06-05 06:04:36 51°13.663 2°55.959 20.0847 0.029139 0.158505 -0.443383
2009-06-05 06:04:40 51°13.663 2°55.959 20.0799 0.029241 0.159067 -0.478207
2009-06-05 06:04:46 51°13.663 2°55.959 20.0868 0.029344 0.15963 -0.443383
2009-06-05 06:04:51 51°13.663 2°55.959 20.0993 0.029344 0.15963 -0.478207
2009-06-05 06:04:56 51°13.663 2°55.959 20.1013 0.029344 0.15963 -0.478207
2009-06-05 06:05:00 51°13.663 2°55.959 20.1078 0.029344 0.159632 -0.443383
2009-06-05 06:05:06 51°13.663 2°55.959 20.1075 0.029344 0.15963 -0.443383
2009-06-05 06:05:11 51°13.663 2°55.959 20.1018 0.029344 0.159632 -0.443383
2009-06-05 06:05:16 51°13.663 2°55.959 20.1011 0.029344 0.15963 -0.443383
2009-06-05 06:05:22 51°13.663 2°55.959 20.1013 0.029241 0.159067 -0.443383
2009-06-05 06:05:26 51°13.663 2°55.959 20.0983 0.029241 0.159067 -0.443383
2009-06-05 06:05:31 51°13.663 2°55.959 20.0961 0.029241 0.159067 -0.443383
2009-06-05 06:05:36 51°13.663 2°55.959 20.0987 0.029344 0.15963 -0.443383
2009-06-05 06:05:41 51°13.663 2°55.959 20.0996 0.029344 0.159632 -0.443383
2009-06-05 06:05:46 51°13.663 2°55.959 20.1008 0.029344 0.159632 -0.443383
2009-06-05 06:05:51 51°13.663 2°55.959 20.0966 0.029344 0.159632 -0.443383
2009-06-05 06:05:56 51°13.663 2°55.958 20.1024 0.02955 0.160755 -0.443383
2009-06-05 06:06:02 51°13.663 2°55.958 20.1063 0.02955 0.160755 -0.443383
2009-06-05 06:06:06 51°13.663 2°55.958 20.1042 0.029447 0.160192 -0.443383
2009-06-05 06:06:11 51°13.663 2°55.958 20.0999 0.029447 0.160192 -0.443383
2009-06-05 06:06:16 51°13.663 2°55.959 20.102 0.029344 0.15963 -0.443383
2009-06-05 06:06:21 51°13.664 2°55.959 20.099 0.029447 0.160192 -0.443383
2009-06-05 06:06:26 51°13.663 2°55.959 20.0972 0.029241 0.159067 -0.478207
2009-06-05 06:06:31 51°13.663 2°55.959 20.0963 0.029241 0.159067 -0.478207
2009-06-05 06:06:36 51°13.664 2°55.958 20.097 0.029344 0.15963 -0.443383
2009-06-05 06:06:42 51°13.664 2°55.959 20.099 0.029447 0.160192 -0.443383
2009-06-05 06:06:46 51°13.664 2°55.959 20.1075 0.029447 0.160192 -0.443383
2009-06-05 06:06:51 51°13.663 2°55.959 20.1099 0.029447 0.160192 -0.478207
2009-06-05 06:06:56 51°13.663 2°55.959 20.1084 0.029447 0.160192 -0.443383
2009-06-05 06:07:01 51°13.663 2°55.959 20.1076 0.029447 0.160192 -0.443383
2009-06-05 06:07:06 51°13.663 2°55.959 20.1078 0.029447 0.160192 -0.478207
2009-06-05 06:07:12 51°13.663 2°55.96 20.1044 0.029447 0.160192 -0.443383
2009-06-05 06:07:16 51°13.662 2°55.96 20.1056 0.029447 0.160192 -0.443383
2009-06-05 06:07:21 51°13.663 2°55.96 20.1072 0.029447 0.160195 -0.478207
2009-06-05 06:07:26 51°13.662 2°55.96 20.106 0.029447 0.160195 -0.478207
2009-06-05 06:07:31 51°13.662 2°55.96 20.1047 0.029344 0.15963 -0.443383
2009-06-05 06:07:36 51°13.662 2°55.96 20.1097 0.029241 0.159067 -0.443383
2009-06-05 06:07:41 51°13.662 2°55.96 20.1094 0.029344 0.15963 -0.443383
2009-06-05 06:07:46 51°13.662 2°55.96 20.1122 0.029344 0.15963 -0.443383
2009-06-05 06:07:52 51°13.662 2°55.961 20.1093 0.029344 0.15963 -0.443383
2009-06-05 06:07:56 51°13.662 2°55.961 20.1028 0.029344 0.15963 -0.443383
2009-06-05 06:08:01 51°13.662 2°55.961 20.1083 0.029241 0.159067 -0.478207
2009-06-05 06:08:06 51°13.662 2°55.961 20.1135 0.029241 0.159065 -0.443383
2009-06-05 06:08:11 51°13.662 2°55.961 20.1391 0.029344 0.159627 -0.443383
2009-06-05 06:08:16 51°13.662 2°55.961 20.1304 0.029344 0.15963 -0.443383
2009-06-05 06:08:21 51°13.662 2°55.961 20.1071 0.029344 0.15963 -0.443383
2009-06-05 06:08:26 51°13.662 2°55.961 20.1194 0.029344 0.15963 -0.443383
2009-06-05 06:08:31 51°13.662 2°55.961 20.1209 0.02955 0.160755 -0.443383
2009-06-05 06:08:36 51°13.662 2°55.961 20.1141 0.029653 0.161318 -0.478207
2009-06-05 06:08:41 51°13.662 2°55.961 20.1165 0.029653 0.161318 -0.478207
2009-06-05 06:08:46 51°13.662 2°55.961 20.1177 0.02955 0.160755 -0.443383
2009-06-05 06:08:52 51°13.662 2°55.961 20.1201 0.029447 0.160192 -0.478207
2009-06-05 06:08:56 51°13.662 2°55.961 20.1199 0.02955 0.160755 -0.478207
2009-06-05 06:09:01 51°13.662 2°55.961 20.1145 0.02955 0.160755 -0.478207
2009-06-05 06:09:06 51°13.661 2°55.961 20.1194 0.02955 0.160755 -0.478207
2009-06-05 06:09:11 51°13.662 2°55.961 20.1157 0.029653 0.161318 -0.443383
2009-06-05 06:09:16 51°13.662 2°55.961 20.1172 0.029653 0.161318 -0.478207
2009-06-05 06:09:21 51°13.662 2°55.961 20.1137 0.02955 0.160755 -0.443383
2009-06-05 06:09:26 51°13.662 2°55.961 20.1107 0.029344 0.15963 -0.443383
2009-06-05 06:09:31 51°13.662 2°55.961 20.113 0.029344 0.15963 -0.443383
2009-06-05 06:09:36 51°13.662 2°55.961 20.1173 0.029241 0.159065 -0.443383
2009-06-05 06:09:41 51°13.662 2°55.96 20.1223 0.029241 0.159065 -0.443383
2009-06-05 06:09:46 51°13.662 2°55.961 20.1018 0.029241 0.159065 -0.443383
2009-06-05 06:09:51 51°13.662 2°55.961 20.1235 0.029447 0.16019 -0.478207
2009-06-05 06:09:56 51°13.662 2°55.96 20.1248 0.029447 0.16019 -0.478207
2009-06-05 06:10:01 51°13.662 2°55.96 20.1176 0.02955 0.160752 -0.443383
2009-06-05 06:10:06 51°13.662 2°55.96 20.1168 0.029653 0.161315 -0.443383
2009-06-05 06:10:11 51°13.662 2°55.96 20.1153 0.029447 0.16019 -0.478207
2009-06-05 06:10:16 51°13.661 2°55.96 20.1147 0.029447 0.16019 -0.443383
2009-06-05 06:10:21 51°13.662 2°55.96 20.12 0.029447 0.16019 -0.443383
2009-06-05 06:10:26 51°13.662 2°55.96 20.1224 0.029447 0.16019 -0.443383
2009-06-05 06:10:31 51°13.662 2°55.96 20.1258 0.02955 0.160752 -0.478207
2009-06-05 06:10:36 51°13.662 2°55.96 20.1221 0.029653 0.161318 -0.443383
2009-06-05 06:10:41 51°13.662 2°55.959 20.1263 0.02955 0.160752 -0.443383
2009-06-05 06:10:46 51°13.662 2°55.959 20.1195 0.029447 0.16019 -0.443383
2009-06-05 06:10:51 51°13.662 2°55.959 20.1164 0.029447 0.16019 -0.443383
2009-06-05 06:10:56 51°13.662 2°55.96 20.1225 0.029447 0.160192 -0.443383
2009-06-05 06:11:02 51°13.662 2°55.959 20.1262 0.029447 0.160192 -0.443383
2009-06-05 06:11:06 51°13.662 2°55.959 20.1289 0.02955 0.160755 -0.443383
2009-06-05 06:11:11 51°13.662 2°55.959 20.1242 0.02955 0.160755 -0.443383
2009-06-05 06:11:16 51°13.662 2°55.959 20.1222 0.029653 0.161318 -0.478207
2009-06-05 06:11:21 51°13.662 2°55.959 20.1249 0.02955 0.160755 -0.443383
2009-06-05 06:11:26 51°13.662 2°55.959 20.1269 0.02955 0.160752 -0.478207
2009-06-05 06:11:31 51°13.662 2°55.959 20.1349 0.02955 0.160752 -0.478207
2009-06-05 06:11:36 51°13.662 2°55.959 20.1338 0.029653 0.161318 -0.443383
2009-06-05 06:11:41 51°13.663 2°55.959 20.1311 0.029653 0.161318 -0.443383
2009-06-05 06:11:46 51°13.662 2°55.96 20.1306 0.029653 0.161318 -0.443383
2009-06-05 06:11:51 51°13.662 2°55.96 20.1258 0.02955 0.160755 -0.478207
2009-06-05 06:11:56 51°13.663 2°55.96 20.1308 0.02955 0.160755 -0.443383
2009-06-05 06:12:01 51°13.663 2°55.96 20.125 0.02955 0.160755 -0.443383
2009-06-05 06:12:05 51°13.663 2°55.96 20.1223 0.029653 0.161318 -0.443383
2009-06-05 06:12:10 51°13.663 2°55.96 20.1287 0.029653 0.161318 -0.478207
2009-06-05 06:12:16 51°13.663 2°55.96 20.1238 0.02955 0.160755 -0.478207
2009-06-05 06:12:20 51°13.663 2°55.959 20.1198 0.029447 0.160192 -0.443383
2009-06-05 06:12:25 51°13.663 2°55.959 20.1223 0.029447 0.160192 -0.443383
2009-06-05 06:12:29 51°13.663 2°55.959 20.1342 0.02955 0.160755 -0.443383
2009-06-05 06:12:34 51°13.663 2°55.959 20.1295 0.02955 0.160755 -0.478207
2009-06-05 06:12:39 51°13.663 2°55.959 20.1257 0.029653 0.161318 -0.443383
2009-06-05 06:12:44 51°13.663 2°55.959 20.1244 0.029653 0.161315 -0.478207
2009-06-05 06:12:49 51°13.663 2°55.959 20.122 0.029653 0.161315 -0.478207
2009-06-05 06:12:54 51°13.663 2°55.959 20.1258 0.029653 0.161315 -0.478207
2009-06-05 06:12:58 51°13.663 2°55.959 20.1297 0.029653 0.161318 -0.443383
2009-06-05 06:13:03 51°13.663 2°55.959 20.1314 0.02955 0.160752 -0.478207
2009-06-05 06:13:08 51°13.663 2°55.959 20.1295 0.029653 0.161318 -0.478207
2009-06-05 06:13:13 51°13.663 2°55.959 20.1325 0.029653 0.161315 -0.443383
2009-06-05 06:13:18 51°13.663 2°55.959 20.1293 0.029653 0.161318 -0.478207
2009-06-05 06:13:23 51°13.663 2°55.959 20.1305 0.029756 0.161881 -0.443383
2009-06-05 06:13:28 51°13.664 2°55.959 20.1249 0.029756 0.161881 -0.443383
2009-06-05 06:13:32 51°13.663 2°55.959 20.1294 0.029653 0.161315 -0.478207
2009-06-05 06:13:37 51°13.663 2°55.959 20.1226 0.029653 0.161318 -0.443383
2009-06-05 06:13:42 51°13.663 2°55.959 20.1299 0.029653 0.161318 -0.478207
2009-06-05 06:13:47 51°13.663 2°55.959 20.1238 0.029653 0.161318 -0.443383
2009-06-05 06:13:52 51°13.664 2°55.959 20.1318 0.029756 0.161881 -0.478207
2009-06-05 06:13:57 51°13.664 2°55.959 20.1356 0.029756 0.161881 -0.478207
2009-06-05 06:14:02 51°13.664 2°55.959 20.1403 0.029447 0.16019 -0.443383
2009-06-05 06:14:08 51°13.664 2°55.959 20.1434 0.029653 0.161318 -0.443383
2009-06-05 06:14:12 51°13.664 2°55.959 20.1429 0.029653 0.161318 -0.478207
2009-06-05 06:14:17 51°13.664 2°55.959 20.1427 0.02955 0.160755 -0.478207
2009-06-05 06:14:22 51°13.664 2°55.959 20.1404 0.02955 0.160755 -0.478207
2009-06-05 06:14:26 51°13.664 2°55.959 20.1341 0.02955 0.160755 -0.443383
2009-06-05 06:14:32 51°13.664 2°55.958 20.1374 0.029344 0.15963 -0.443383
2009-06-05 06:14:37 51°13.664 2°55.959 20.1348 0.029447 0.160192 -0.443383
2009-06-05 06:14:42 51°13.664 2°55.958 20.1358 0.02955 0.160752 -0.443383
2009-06-05 06:14:46 51°13.664 2°55.959 20.134 0.029653 0.161318 -0.443383
2009-06-05 06:14:52 51°13.664 2°55.959 20.1345 0.029653 0.161318 -0.443383
2009-06-05 06:14:57 51°13.664 2°55.959 20.1335 0.02955 0.160755 -0.443383
2009-06-05 06:15:02 51°13.664 2°55.958 20.1397 0.029653 0.161318 -0.443383
2009-06-05 06:15:07 51°13.664 2°55.958 20.1353 0.029653 0.161318 -0.443383
2009-06-05 06:15:12 51°13.663 2°55.958 20.1311 0.02955 0.160755 -0.443383
2009-06-05 06:15:17 51°13.664 2°55.958 20.1389 0.02955 0.160755 -0.478207
2009-06-05 06:15:22 51°13.664 2°55.958 20.1274 0.029653 0.161318 -0.443383
2009-06-05 06:15:27 51°13.664 2°55.958 20.1242 0.029653 0.161318 -0.443383
2009-06-05 06:15:32 51°13.663 2°55.958 20.137 0.029447 0.160192 -0.443383
2009-06-05 06:15:37 51°13.663 2°55.958 20.1411 0.029344 0.15963 -0.478207
2009-06-05 06:15:42 51°13.664 2°55.958 20.1584 0.029447 0.160192 -0.443383
2009-06-05 06:15:47 51°13.663 2°55.958 20.1434 0.029344 0.159632 -0.443383
2009-06-05 06:15:52 51°13.663 2°55.958 20.1499 0.029344 0.159632 -0.443383
2009-06-05 06:15:58 51°13.663 2°55.959 20.1589 0.02955 0.160755 -0.443383
2009-06-05 06:16:02 51°13.663 2°55.959 20.1579 0.029653 0.161321 -0.478207
2009-06-05 06:16:07 51°13.663 2°55.958 20.1469 0.029653 0.161321 -0.478207
2009-06-05 06:16:12 51°13.663 2°55.959 20.1455 0.029653 0.161321 -0.478207
2009-06-05 06:16:18 51°13.664 2°55.959 20.1496 0.029653 0.161321 -0.478207
2009-06-05 06:16:22 51°13.664 2°55.959 20.1519 0.029653 0.161321 -0.478207
2009-06-05 06:16:26 51°13.664 2°55.959 20.1533 0.02955 0.160758 -0.478207
2009-06-05 06:16:32 51°13.664 2°55.959 20.1558 0.02955 0.160758 -0.443383
2009-06-05 06:16:38 51°13.663 2°55.959 20.1605 0.029653 0.161323 -0.478207
2009-06-05 06:16:42 51°13.664 2°55.959 20.1727 0.02955 0.16076 -0.443383
2009-06-05 06:16:46 51°13.663 2°55.959 20.1882 0.02955 0.16076 -0.443383
2009-06-05 06:16:52 51°13.663 2°55.959 20.1876 0.02955 0.16076 -0.478207
2009-06-05 06:16:57 51°13.663 2°55.959 20.1799 0.02955 0.16076 -0.478207
2009-06-05 06:17:02 51°13.663 2°55.959 20.1758 0.029447 0.160198 -0.478207
2009-06-05 06:17:07 51°13.663 2°55.959 20.1725 0.029447 0.160198 -0.443383
2009-06-05 06:17:12 51°13.663 2°55.959 20.1741 0.02955 0.16076 -0.478207
2009-06-05 06:17:18 51°13.663 2°55.959 20.1748 0.029653 0.161326 -0.443383
2009-06-05 06:17:22 51°13.663 2°55.959 20.1715 0.02955 0.160763 -0.443383
2009-06-05 06:17:27 51°13.663 2°55.959 20.1722 0.02955 0.160763 -0.443383
2009-06-05 06:17:32 51°13.663 2°55.959 20.1661 0.029653 0.161326 -0.478207
2009-06-05 06:17:37 51°13.663 2°55.959 20.1715 0.029653 0.161329 -0.443383
2009-06-05 06:17:42 51°13.663 2°55.959 20.1714 0.029653 0.161329 -0.443383
2009-06-05 06:17:48 51°13.663 2°55.959 20.1734 0.029653 0.161329 -0.478207
2009-06-05 06:17:52 51°13.663 2°55.959 20.1711 0.029653 0.161329 -0.478207
2009-06-05 06:17:57 51°13.663 2°55.959 20.1668 0.029653 0.161329 -0.443383
2009-06-05 06:18:02 51°13.663 2°55.959 20.1647 0.029653 0.161329 -0.443383
2009-06-05 06:18:06 51°13.663 2°55.959 20.1572 0.02955 0.160766 -0.443383
2009-06-05 06:18:12 51°13.663 2°55.959 20.1604 0.02955 0.160763 -0.443383
2009-06-05 06:18:17 51°13.663 2°55.959 20.1657 0.02955 0.160763 -0.443383
2009-06-05 06:18:22 51°13.663 2°55.959 20.154 0.02955 0.160763 -0.443383
2009-06-05 06:18:26 51°13.663 2°55.959 20.1564 0.02955 0.160763 -0.478207
2009-06-05 06:18:32 51°13.663 2°55.959 20.14 0.02955 0.160763 -0.478207
2009-06-05 06:18:38 51°13.663 2°55.959 20.1576 0.02955 0.160763 -0.443383
2009-06-05 06:18:42 51°13.663 2°55.959 20.1549 0.029447 0.1602 -0.443383
2009-06-05 06:18:46 51°13.663 2°55.959 20.1574 0.02955 0.160763 -0.443383
2009-06-05 06:18:52 51°13.663 2°55.959 20.1577 0.02955 0.160763 -0.478207
2009-06-05 06:18:57 51°13.663 2°55.959 20.1676 0.02955 0.160763 -0.478207
2009-06-05 06:19:02 51°13.663 2°55.959 20.1629 0.029447 0.1602 -0.443383
2009-06-05 06:19:08 51°13.663 2°55.959 20.1695 0.02955 0.160763 -0.443383
2009-06-05 06:19:12 51°13.663 2°55.959 20.1738 0.029447 0.160203 -0.443383
2009-06-05 06:19:17 51°13.663 2°55.959 20.1618 0.02955 0.160766 -0.478207
2009-06-05 06:19:22 51°13.663 2°55.959 20.1642 0.02955 0.160766 -0.478207
2009-06-05 06:19:27 51°13.663 2°55.959 20.1719 0.02955 0.160766 -0.443383
2009-06-05 06:19:32 51°13.662 2°55.959 20.1699 0.02955 0.160766 -0.443383
2009-06-05 06:19:38 51°13.662 2°55.96 20.1732 0.02955 0.160766 -0.478207
2009-06-05 06:19:43 51°13.662 2°55.96 20.1899 0.02955 0.160766 -0.443383
2009-06-05 06:19:47 51°13.663 2°55.959 20.1915 0.02955 0.160766 -0.443383
2009-06-05 06:19:53 51°13.662 2°55.959 20.1844 0.02955 0.160766 -0.443383
2009-06-05 06:19:58 51°13.662 2°55.96 20.1813 0.02955 0.160769 -0.443383
2009-06-05 06:20:03 51°13.662 2°55.96 20.1784 0.02955 0.160769 -0.478207
2009-06-05 06:20:07 51°13.662 2°55.96 20.1712 0.02955 0.160769 -0.443383
2009-06-05 06:20:13 51°13.662 2°55.96 20.1696 0.02955 0.160769 -0.443383
2009-06-05 06:20:18 51°13.662 2°55.96 20.1709 0.029756 0.161894 -0.443383
2009-06-05 06:20:23 51°13.663 2°55.96 20.1713 0.029447 0.160206 -0.478207
2009-06-05 06:20:27 51°13.663 2°55.96 20.1714 0.029447 0.160206 -0.478207
2009-06-05 06:20:33 51°13.663 2°55.96 20.1735 0.02955 0.160769 -0.443383
2009-06-05 06:20:38 51°13.663 2°55.96 20.1689 0.02955 0.160769 -0.443383
2009-06-05 06:20:42 51°13.662 2°55.96 20.1672 0.02955 0.160769 -0.443383
2009-06-05 06:20:48 51°13.662 2°55.96 20.1643 0.029447 0.160206 -0.443383
2009-06-05 06:20:53 51°13.663 2°55.96 20.1648 0.02955 0.160766 -0.443383
2009-06-05 06:20:58 51°13.662 2°55.96 20.165 0.02955 0.160766 -0.443383
2009-06-05 06:21:03 51°13.662 2°55.96 20.1631 0.029447 0.1602 -0.478207
2009-06-05 06:21:08 51°13.663 2°55.961 20.1445 0.029344 0.159638 -0.443383
2009-06-05 06:21:13 51°13.662 2°55.961 20.1439 0.029344 0.159635 -0.443383
2009-06-05 06:21:18 51°13.662 2°55.961 20.1706 0.029344 0.159638 -0.443383
2009-06-05 06:21:23 51°13.663 2°55.961 20.178 0.029344 0.159638 -0.443383
2009-06-05 06:21:27 51°13.663 2°55.961 20.1818 0.029447 0.160203 -0.478207
2009-06-05 06:21:33 51°13.663 2°55.961 20.1705 0.029447 0.160203 -0.443383
2009-06-05 06:21:38 51°13.663 2°55.961 20.1605 0.029241 0.159075 -0.443383
2009-06-05 06:21:43 51°13.663 2°55.961 20.1533 0.029344 0.159638 -0.443383
2009-06-05 06:21:48 51°13.662 2°55.961 20.1562 0.029344 0.159635 -0.443383
2009-06-05 06:21:52 51°13.662 2°55.961 20.1702 0.029344 0.159635 -0.443383
2009-06-05 06:21:58 51°13.662 2°55.961 20.172 0.029344 0.159641 -0.443383
2009-06-05 06:22:03 51°13.662 2°55.961 20.1738 0.029653 0.161329 -0.443383
2009-06-05 06:22:08 51°13.662 2°55.961 20.1842 0.02955 0.160771 -0.443383
2009-06-05 06:22:12 51°13.662 2°55.961 20.1809 0.02955 0.160771 -0.443383
2009-06-05 06:22:18 51°13.662 2°55.961 20.1982 0.02955 0.160771 -0.478207
2009-06-05 06:22:23 51°13.663 2°55.961 20.18 0.029447 0.160209 -0.443383
2009-06-05 06:22:27 51°13.663 2°55.961 20.1815 0.029447 0.160209 -0.443383
2009-06-05 06:22:33 51°13.662 2°55.962 20.2002 0.02955 0.160771 -0.478207
2009-06-05 06:22:38 51°13.662 2°55.962 20.1977 0.02955 0.160771 -0.443383
2009-06-05 06:22:43 51°13.663 2°55.961 20.1973 0.029653 0.161334 -0.443383
2009-06-05 06:22:47 51°13.662 2°55.961 20.2017 0.029756 0.161903 -0.443383
2009-06-05 06:22:53 51°13.662 2°55.961 20.205 0.029756 0.161905 -0.478207
2009-06-05 06:22:58 51°13.662 2°55.961 20.2062 0.029756 0.161905 -0.478207
2009-06-05 06:23:03 51°13.662 2°55.961 20.2019 0.029653 0.16134 -0.443383
2009-06-05 06:23:08 51°13.662 2°55.961 20.1987 0.029653 0.161342 -0.443383
2009-06-05 06:23:13 51°13.662 2°55.961 20.1949 0.029653 0.16134 -0.443383
2009-06-05 06:23:18 51°13.662 2°55.96 20.194 0.029653 0.161342 -0.443383
2009-06-05 06:23:23 51°13.662 2°55.96 20.1912 0.029653 0.161342 -0.443383
2009-06-05 06:23:27 51°13.662 2°55.96 20.1896 0.029653 0.161342 -0.443383
2009-06-05 06:23:33 51°13.662 2°55.96 20.1896 0.029653 0.161342 -0.443383
2009-06-05 06:23:38 51°13.662 2°55.96 20.1885 0.029756 0.161905 -0.443383
2009-06-05 06:23:42 51°13.662 2°55.96 20.1891 0.029756 0.161905 -0.443383
2009-06-05 06:23:47 51°13.662 2°55.96 20.1894 0.029859 0.162471 -0.478207
2009-06-05 06:23:52 51°13.662 2°55.96 20.1884 0.029859 0.162471 -0.478207
2009-06-05 06:23:58 51°13.662 2°55.96 20.1877 0.029756 0.161905 -0.443383
2009-06-05 06:24:03 51°13.662 2°55.959 20.1893 0.029859 0.162469 -0.443383
2009-06-05 06:24:07 51°13.662 2°55.959 20.1956 0.029859 0.162471 -0.443383
2009-06-05 06:24:12 51°13.662 2°55.959 20.1887 0.029859 0.162474 -0.443383
2009-06-05 06:24:18 51°13.662 2°55.959 20.1862 0.029962 0.163037 -0.443383
2009-06-05 06:24:23 51°13.662 2°55.959 20.1914 0.029962 0.163037 -0.443383
2009-06-05 06:24:27 51°13.662 2°55.959 20.2006 0.029962 0.163037 -0.443383
2009-06-05 06:24:32 51°13.662 2°55.959 20.2046 0.029962 0.163037 -0.478207
2009-06-05 06:24:38 51°13.662 2°55.96 20.2087 0.029962 0.16304 -0.443383
2009-06-05 06:24:43 51°13.662 2°55.96 20.2075 0.030065 0.163603 -0.443383
2009-06-05 06:24:47 51°13.662 2°55.96 20.2092 0.030065 0.163606 -0.443383
2009-06-05 06:24:53 51°13.662 2°55.96 20.2067 0.030065 0.163606 -0.443383
2009-06-05 06:24:58 51°13.662 2°55.96 20.2093 0.030168 0.16417 -0.443383
2009-06-05 06:25:03 51°13.662 2°55.96 20.2247 0.030168 0.16417 -0.443383
2009-06-05 06:25:07 51°13.662 2°55.96 20.2187 0.029962 0.163043 -0.443383
2009-06-05 06:25:13 51°13.661 2°55.96 20.2125 0.030065 0.163606 -0.443383
2009-06-05 06:25:18 51°13.661 2°55.96 20.2117 0.030065 0.163606 -0.443383
2009-06-05 06:25:23 51°13.662 2°55.96 20.2118 0.030065 0.163606 -0.443383
2009-06-05 06:25:27 51°13.662 2°55.96 20.2144 0.029962 0.163043 -0.478207
2009-06-05 06:25:33 51°13.662 2°55.96 20.2084 0.030168 0.16417 -0.443383
2009-06-05 06:25:38 51°13.661 2°55.96 20.2143 0.030065 0.163606 -0.443383
2009-06-05 06:25:42 51°13.661 2°55.96 20.2199 0.030168 0.16417 -0.443383
2009-06-05 06:25:47 51°13.661 2°55.96 20.2159 0.030168 0.16417 -0.443383
2009-06-05 06:25:53 51°13.661 2°55.96 20.2207 0.030168 0.16417 -0.443383
2009-06-05 06:25:58 51°13.661 2°55.96 20.2179 0.030168 0.16417 -0.443383
2009-06-05 06:26:03 51°13.661 2°55.96 20.2236 0.030168 0.16417 -0.443383
2009-06-05 06:26:07 51°13.661 2°55.96 20.2195 0.030168 0.16417 -0.443383
2009-06-05 06:26:13 51°13.661 2°55.96 20.2185 0.030168 0.164172 -0.443383
2009-06-05 06:26:18 51°13.661 2°55.96 20.2201 0.030168 0.164172 -0.443383
2009-06-05 06:26:23 51°13.661 2°55.96 20.2216 0.030168 0.16417 -0.443383
2009-06-05 06:26:27 51°13.661 2°55.96 20.2195 0.030168 0.16417 -0.443383
2009-06-05 06:26:33 51°13.661 2°55.96 20.2145 0.030168 0.164172 -0.443383
2009-06-05 06:26:38 51°13.661 2°55.96 20.215 0.029962 0.16304 -0.443383
2009-06-05 06:26:43 51°13.661 2°55.959 20.2149 0.030065 0.163603 -0.443383
2009-06-05 06:26:48 51°13.661 2°55.959 20.2153 0.030065 0.163603 -0.443383
2009-06-05 06:26:52 51°13.661 2°55.959 20.2144 0.030065 0.163603 -0.443383
2009-06-05 06:26:58 51°13.661 2°55.959 20.1954 0.030065 0.163603 -0.478207
2009-06-05 06:27:03 51°13.661 2°55.959 20.1599 0.029756 0.161911 -0.443383
2009-06-05 06:27:08 51°13.661 2°55.958 20.1913 0.029653 0.161342 -0.443383
2009-06-05 06:27:12 51°13.662 2°55.957 20.0921 0.029859 0.162474 -0.443383
2009-06-05 06:27:18 51°13.662 2°55.955 20.1726 0.029139 0.158516 -0.443383
2009-06-05 06:27:22 51°13.663 2°55.954 20.2036 0.029139 0.158516 -0.443383
2009-06-05 06:27:28 51°13.664 2°55.951 20.1962 0.029344 0.159646 -0.443383
2009-06-05 06:27:32 51°13.664 2°55.948 20.21 0.029756 0.1619 -0.478207
2009-06-05 06:27:38 51°13.666 2°55.944 20.1969 0.029756 0.161905 -0.443383
2009-06-05 06:27:44 51°13.667 2°55.939 20.2367 0.030065 0.163598 -0.443383
2009-06-05 06:27:50 51°13.668 2°55.935 20.2153 0.029859 0.162474 -0.478207
2009-06-05 06:27:55 51°13.67 2°55.93 20.2252 0.030065 0.163603 -0.443383
2009-06-05 06:28:01 51°13.671 2°55.925 20.2191 0.030065 0.163603 -0.443383
2009-06-05 06:28:06 51°13.673 2°55.919 20.2193 0.029859 0.162477 -0.443383
2009-06-05 06:28:11 51°13.674 2°55.913 20.2156 0.029756 0.161911 -0.443383
2009-06-05 06:28:16 51°13.675 2°55.907 20.2206 0.029962 0.163037 -0.443383
2009-06-05 06:28:22 51°13.677 2°55.899 20.2357 0.030065 0.163603 -0.443383
2009-06-05 06:28:26 51°13.678 2°55.894 20.2341 0.030065 0.163603 -0.443383
2009-06-05 06:28:31 51°13.68 2°55.887 20.2116 0.030065 0.163603 -0.443383
2009-06-05 06:28:36 51°13.681 2°55.88 20.2258 0.029653 0.161348 -0.443383
2009-06-05 06:28:41 51°13.683 2°55.872 20.2325 0.029859 0.162471 -0.443383
2009-06-05 06:28:46 51°13.684 2°55.864 20.2252 0.029859 0.162471 -0.443383
2009-06-05 06:28:51 51°13.686 2°55.856 20.2329 0.030065 0.163598 -0.443383
2009-06-05 06:28:56 51°13.688 2°55.849 20.2415 0.030065 0.163598 -0.443383
2009-06-05 06:29:01 51°13.69 2°55.842 20.2441 0.029962 0.163034 -0.478207
2009-06-05 06:29:06 51°13.691 2°55.835 20.233 0.030168 0.164164 -0.478207
2009-06-05 06:29:11 51°13.692 2°55.829 20.235 0.030065 0.163601 -0.443383
2009-06-05 06:29:16 51°13.694 2°55.823 20.2386 0.030271 0.164728 -0.443383
2009-06-05 06:29:21 51°13.696 2°55.817 20.2322 0.029859 0.162471 -0.443383
2009-06-05 06:29:26 51°13.698 2°55.811 20.2229 0.029962 0.163032 -0.443383
2009-06-05 06:29:31 51°13.7 2°55.805 20.2244 0.029962 0.163032 -0.443383
2009-06-05 06:29:35 51°13.701 2°55.8 20.2054 0.029962 0.163032 -0.478207
2009-06-05 06:29:40 51°13.703 2°55.794 20.1898 0.029756 0.161903 -0.443383
2009-06-05 06:29:45 51°13.706 2°55.789 20.1956 0.029653 0.16134 -0.443383
2009-06-05 06:29:51 51°13.708 2°55.782 20.1963 0.029653 0.16134 -0.443383
2009-06-05 06:29:56 51°13.71 2°55.776 20.2206 0.029653 0.161337 -0.478207
2009-06-05 06:30:01 51°13.713 2°55.77 20.2444 0.029653 0.161337 -0.478207
2009-06-05 06:30:06 51°13.715 2°55.765 20.2619 0.030168 0.164158 -0.443383
2009-06-05 06:30:11 51°13.716 2°55.76 20.2682 0.030168 0.164161 -0.443383
2009-06-05 06:30:16 51°13.718 2°55.756 20.2548 0.030168 0.164164 -0.443383
2009-06-05 06:30:22 51°13.719 2°55.753 20.2252 0.030065 0.163601 -0.443383
2009-06-05 06:30:26 51°13.72 2°55.752 20.1158 0.030065 0.163601 -0.443383
2009-06-05 06:30:31 51°13.721 2°55.749 20.1422 0.029447 0.160214 -0.443383
2009-06-05 06:30:35 51°13.722 2°55.747 20.1737 0.029344 0.159643 -0.443383
2009-06-05 06:30:41 51°13.725 2°55.742 20.2242 0.029653 0.161329 -0.443383
2009-06-05 06:30:46 51°13.727 2°55.738 20.2144 0.029756 0.161894 -0.443383
2009-06-05 06:30:50 51°13.729 2°55.735 20.2375 0.029962 0.163023 -0.443383
2009-06-05 06:30:55 51°13.732 2°55.731 20.2147 0.029962 0.163023 -0.443383
2009-06-05 06:31:02 51°13.736 2°55.725 20.252 0.029653 0.161334 -0.443383
2009-06-05 06:31:06 51°13.739 2°55.721 20.2129 0.029859 0.162466 -0.443383
2009-06-05 06:31:11 51°13.743 2°55.716 20.229 0.029859 0.162463 -0.443383
2009-06-05 06:31:16 51°13.748 2°55.711 20.2212 0.029859 0.162463 -0.443383
2009-06-05 06:31:21 51°13.753 2°55.707 20.2469 0.029962 0.163026 -0.478207
2009-06-05 06:31:26 51°13.757 2°55.703 20.2399 0.029962 0.163029 -0.443383
2009-06-05 06:31:31 51°13.761 2°55.699 20.237 0.029962 0.163029 -0.443383
2009-06-05 06:31:36 51°13.766 2°55.695 20.2292 0.030065 0.163595 -0.443383
2009-06-05 06:31:41 51°13.77 2°55.692 20.2329 0.030065 0.163595 -0.443383
2009-06-05 06:31:46 51°13.775 2°55.688 20.2349 0.029962 0.163032 -0.443383
2009-06-05 06:31:51 51°13.78 2°55.684 20.2379 0.029962 0.163029 -0.443383
2009-06-05 06:31:56 51°13.785 2°55.68 20.2364 0.029859 0.162466 -0.443383
2009-06-05 06:32:01 51°13.79 2°55.677 20.2257 0.029859 0.162466 -0.443383
2009-06-05 06:32:06 51°13.795 2°55.673 20.2538 0.029859 0.162463 -0.443383
2009-06-05 06:32:11 51°13.8 2°55.669 20.2378 0.029859 0.162463 -0.478207
2009-06-05 06:32:16 51°13.805 2°55.664 20.2345 0.029962 0.163023 -0.443383
2009-06-05 06:32:21 51°13.81 2°55.66 20.2294 0.029962 0.163023 -0.478207
2009-06-05 06:32:26 51°13.815 2°55.656 20.2383 0.029962 0.163023 -0.478207
2009-06-05 06:32:31 51°13.821 2°55.652 20.2515 0.029962 0.163021 -0.443383
2009-06-05 06:32:36 51°13.825 2°55.648 20.2349 0.029859 0.162457 -0.478207
2009-06-05 06:32:41 51°13.83 2°55.645 20.2293 0.029447 0.160198 -0.443383
2009-06-05 06:32:46 51°13.835 2°55.641 20.228 0.029447 0.160192 -0.443383
2009-06-05 06:32:51 51°13.84 2°55.638 20.2266 0.02955 0.160752 -0.478207
2009-06-05 06:32:56 51°13.845 2°55.635 20.2268 0.02955 0.16075 -0.443383
2009-06-05 06:33:01 51°13.85 2°55.633 20.233 0.02955 0.16075 -0.443383
2009-06-05 06:33:06 51°13.855 2°55.631 20.2515 0.029756 0.161875 -0.443383
2009-06-05 06:33:11 51°13.86 2°55.629 20.2321 0.029653 0.161315 -0.443383
2009-06-05 06:33:16 51°13.865 2°55.628 20.2516 0.029756 0.161878 -0.478207
2009-06-05 06:33:22 51°13.871 2°55.627 20.2544 0.029962 0.163007 -0.478207
2009-06-05 06:33:26 51°13.875 2°55.626 20.2579 0.030065 0.163573 -0.443383
2009-06-05 06:33:31 51°13.88 2°55.626 20.2604 0.030065 0.163573 -0.443383
2009-06-05 06:33:36 51°13.884 2°55.626 20.2537 0.030065 0.163573 -0.443383
2009-06-05 06:33:42 51°13.889 2°55.626 20.2601 0.030271 0.164702 -0.443383
2009-06-05 06:33:46 51°13.892 2°55.626 20.2502 0.030168 0.164142 -0.443383
2009-06-05 06:33:51 51°13.896 2°55.627 20.2512 0.030271 0.164705 -0.443383
2009-06-05 06:33:56 51°13.9 2°55.628 20.2614 0.030373 0.165271 -0.478207
2009-06-05 06:34:01 51°13.904 2°55.629 20.2429 0.030373 0.165271 -0.478207
2009-06-05 06:34:06 51°13.908 2°55.629 20.2411 0.030168 0.164142 -0.443383
2009-06-05 06:34:11 51°13.911 2°55.63 20.2401 0.030373 0.165269 -0.443383
2009-06-05 06:34:16 51°13.914 2°55.632 20.2435 0.030168 0.164142 -0.443383
2009-06-05 06:34:21 51°13.917 2°55.633 20.2468 0.030168 0.164139 -0.443383
2009-06-05 06:34:26 51°13.92 2°55.634 20.2402 0.030168 0.164139 -0.443383
2009-06-05 06:34:31 51°13.923 2°55.635 20.2408 0.030065 0.163573 -0.443383
2009-06-05 06:34:35 51°13.925 2°55.636 20.2731 0.030271 0.164697 -0.478207
2009-06-05 06:34:40 51°13.927 2°55.637 20.2658 0.030271 0.1647 -0.478207
2009-06-05 06:34:45 51°13.929 2°55.638 20.2563 0.030271 0.164697 -0.443383
2009-06-05 06:34:50 51°13.93 2°55.638 20.2681 0.030373 0.16526 -0.443383
2009-06-05 06:34:55 51°13.932 2°55.639 20.2613 0.030579 0.166388 -0.443383
2009-06-05 06:34:59 51°13.932 2°55.639 20.2693 0.030579 0.166388 -0.443383
2009-06-05 06:35:04 51°13.933 2°55.639 20.2597 0.030682 0.166954 -0.443383
2009-06-05 06:35:09 51°13.933 2°55.639 20.2828 0.030476 0.165821 -0.443383
2009-06-05 06:35:14 51°13.933 2°55.638 20.245 0.030476 0.165818 -0.443383
2009-06-05 06:35:19 51°13.933 2°55.638 20.248 0.030682 0.166946 -0.443383
2009-06-05 06:35:23 51°13.933 2°55.637 20.2276 0.030579 0.166379 -0.443383
2009-06-05 06:35:28 51°13.933 2°55.636 20.2255 0.030579 0.166379 -0.443383
2009-06-05 06:35:33 51°13.933 2°55.635 20.1899 0.030271 0.164688 -0.443383
2009-06-05 06:35:38 51°13.933 2°55.634 20.2194 0.02955 0.160736 -0.443383
2009-06-05 06:35:43 51°13.933 2°55.635 20.2178 0.030065 0.163545 -0.478207
2009-06-05 06:35:48 51°13.934 2°55.635 20.2081 0.029756 0.161859 -0.478207
2009-06-05 06:35:53 51°13.934 2°55.637 20.2336 0.029756 0.161859 -0.478207
2009-06-05 06:35:58 51°13.935 2°55.638 20.2733 0.030168 0.164105 -0.443383
2009-06-05 06:36:03 51°13.935 2°55.64 20.2696 0.030373 0.165243 -0.443383
2009-06-05 06:36:07 51°13.935 2°55.641 20.2878 0.031094 0.169202 -0.443383
2009-06-05 06:36:12 51°13.936 2°55.641 20.2676 0.030888 0.168079 -0.443383
2009-06-05 06:36:17 51°13.936 2°55.642 20.2884 0.030579 0.166385 -0.478207
2009-06-05 06:36:22 51°13.936 2°55.641 20.2562 0.030888 0.168068 -0.443383
2009-06-05 06:36:27 51°13.936 2°55.641 20.2559 0.030888 0.168068 -0.443383
2009-06-05 06:36:32 51°13.937 2°55.639 20.2295 0.030373 0.165246 -0.443383
2009-06-05 06:36:38 51°13.937 2°55.636 20.2529 0.030168 0.164111 -0.443383
2009-06-05 06:36:42 51°13.937 2°55.634 20.2268 0.029962 0.162976 -0.443383
2009-06-05 06:36:47 51°13.937 2°55.631 20.222 0.029859 0.162411 -0.443383
2009-06-05 06:36:52 51°13.938 2°55.628 20.1577 0.029344 0.159589 -0.478207
2009-06-05 06:36:57 51°13.939 2°55.624 20.1207 0.029344 0.159589 -0.478207
2009-06-05 06:37:02 51°13.94 2°55.621 20.1813 0.028109 0.152823 -0.443383
2009-06-05 06:37:07 51°13.942 2°55.617 20.2292 0.029036 0.157876 -0.443383
2009-06-05 06:37:12 51°13.943 2°55.613 20.2598 0.029756 0.161823 -0.478207
2009-06-05 06:37:18 51°13.946 2°55.608 20.2542 0.030168 0.164086 -0.443383
2009-06-05 06:37:22 51°13.948 2°55.605 20.2631 0.030168 0.164086 -0.443383
2009-06-05 06:37:27 51°13.95 2°55.6 20.2605 0.030682 0.166917 -0.443383
2009-06-05 06:37:33 51°13.954 2°55.596 20.2704 0.030682 0.166923 -0.443383
2009-06-05 06:37:38 51°13.957 2°55.591 20.287 0.030888 0.168054 -0.478207
2009-06-05 06:37:43 51°13.961 2°55.586 20.2957 0.0313 0.170322 -0.443383
2009-06-05 06:37:47 51°13.964 2°55.581 20.2735 0.030991 0.168629 -0.478207
2009-06-05 06:37:52 51°13.969 2°55.575 20.274 0.030991 0.168629 -0.478207
2009-06-05 06:37:58 51°13.976 2°55.567 20.2614 0.030991 0.168626 -0.443383
2009-06-05 06:38:03 51°13.982 2°55.56 20.2582 0.030785 0.167492 -0.478207
2009-06-05 06:38:07 51°13.987 2°55.554 20.2546 0.030476 0.165796 -0.443383
2009-06-05 06:38:12 51°13.994 2°55.545 20.2536 0.030579 0.166356 -0.443383
2009-06-05 06:38:17 51°14.001 2°55.538 20.2456 0.030579 0.166356 -0.443383
2009-06-05 06:38:23 51°14.01 2°55.528 20.2302 0.030168 0.164094 -0.443383
2009-06-05 06:38:27 51°14.016 2°55.521 20.2378 0.030168 0.164094 -0.443383
2009-06-05 06:38:32 51°14.024 2°55.513 20.2445 0.030579 0.166345 -0.443383
2009-06-05 06:38:38 51°14.034 2°55.503 20.2401 0.030579 0.166345 -0.443383
2009-06-05 06:38:42 51°14.041 2°55.496 20.2479 0.030373 0.165213 -0.443383
2009-06-05 06:38:47 51°14.049 2°55.487 20.2485 0.030373 0.165207 -0.443383
2009-06-05 06:38:52 51°14.058 2°55.479 20.2748 0.030682 0.166903 -0.443383
2009-06-05 06:38:57 51°14.067 2°55.47 20.2631 0.030682 0.166903 -0.443383
2009-06-05 06:39:02 51°14.076 2°55.461 20.2301 0.030271 0.164646 -0.478207
2009-06-05 06:39:07 51°14.084 2°55.452 20.2548 0.030271 0.164641 -0.478207
2009-06-05 06:39:12 51°14.093 2°55.444 20.27 0.029962 0.16294 -0.443383
2009-06-05 06:39:18 51°14.104 2°55.433 20.2805 0.030373 0.165196 -0.443383
2009-06-05 06:39:22 51°14.112 2°55.427 20.274 0.030373 0.165196 -0.443383
2009-06-05 06:39:27 51°14.121 2°55.418 20.2623 0.030271 0.164638 -0.478207
2009-06-05 06:39:32 51°14.131 2°55.409 20.2365 0.030168 0.164075 -0.443383
2009-06-05 06:39:38 51°14.142 2°55.397 20.2768 0.030271 0.164635 -0.443383
2009-06-05 06:39:42 51°14.15 2°55.39 20.2763 0.02955 0.160687 -0.443383
2009-06-05 06:39:47 51°14.159 2°55.381 20.273 0.029962 0.162927 -0.443383
2009-06-05 06:39:53 51°14.17 2°55.369 20.2569 0.030065 0.16349 -0.443383
2009-06-05 06:39:58 51°14.18 2°55.359 20.2718 0.030065 0.16349 -0.443383
2009-06-05 06:40:03 51°14.19 2°55.349 20.2758 0.029962 0.162929 -0.443383
2009-06-05 06:40:07 51°14.197 2°55.34 20.2521 0.029344 0.159543 -0.478207
2009-06-05 06:40:12 51°14.206 2°55.33 20.2579 0.029859 0.162356 -0.443383
2009-06-05 06:40:18 51°14.217 2°55.317 20.2619 0.030476 0.165745 -0.443383
2009-06-05 06:40:23 51°14.226 2°55.306 20.2556 0.029859 0.162369 -0.478207
2009-06-05 06:40:27 51°14.234 2°55.296 20.2566 0.029859 0.162369 -0.478207
2009-06-05 06:40:32 51°14.242 2°55.284 20.2714 0.029139 0.158411 -0.443383
2009-06-05 06:40:37 51°14.251 2°55.271 20.2275 0.029139 0.1584 -0.478207
2009-06-05 06:40:43 51°14.261 2°55.254 20.2267 0.028109 0.152761 -0.443383
2009-06-05 06:40:47 51°14.267 2°55.243 20.2072 0.028315 0.153865 -0.443383
2009-06-05 06:40:52 51°14.274 2°55.229 20.2094 0.028315 0.153862 -0.443383
2009-06-05 06:40:57 51°14.282 2°55.214 20.2407 0.028315 0.153862 -0.443383
2009-06-05 06:41:03 51°14.292 2°55.196 20.196 0.028007 0.152172 -0.443383
2009-06-05 06:41:07 51°14.298 2°55.184 20.192 0.027595 0.149918 -0.443383
2009-06-05 06:41:12 51°14.306 2°55.169 20.252 0.027904 0.151568 -0.443383
2009-06-05 06:41:17 51°14.313 2°55.153 20.2755 0.027595 0.149886 -0.443383
2009-06-05 06:41:22 51°14.321 2°55.137 20.2336 0.027595 0.149886 -0.443383
2009-06-05 06:41:27 51°14.328 2°55.121 20.2263 0.02708 0.147068 -0.443383
2009-06-05 06:41:32 51°14.336 2°55.105 20.1905 0.026875 0.145964 -0.443383
2009-06-05 06:41:38 51°14.344 2°55.085 20.1691 0.026978 0.146533 -0.443383
2009-06-05 06:41:42 51°14.351 2°55.072 20.2139 0.027389 0.148756 -0.478207
2009-06-05 06:41:47 51°14.358 2°55.056 20.1498 0.026154 0.14203 -0.443383
2009-06-05 06:41:52 51°14.365 2°55.039 20.2401 0.026154 0.142028 -0.443383
2009-06-05 06:41:57 51°14.373 2°55.021 20.207 0.026154 0.142028 -0.443383
2009-06-05 06:42:03 51°14.382 2°55.001 20.2135 0.027698 0.150431 -0.478207
2009-06-05 06:42:07 51°14.388 2°54.986 20.188 0.027183 0.14761 -0.443383
2009-06-05 06:42:11 51°14.393 2°54.971 20.1724 0.026463 0.143676 -0.443383
2009-06-05 06:42:17 51°14.401 2°54.948 20.1599 0.026875 0.14592 -0.443383
2009-06-05 06:42:22 51°14.408 2°54.928 20.2051 0.026669 0.144834 -0.443383
2009-06-05 06:42:27 51°14.415 2°54.908 20.2131 0.026669 0.144834 -0.443383
2009-06-05 06:42:32 51°14.421 2°54.887 20.2233 0.026463 0.143698 -0.443383
2009-06-05 06:42:37 51°14.427 2°54.866 20.2235 0.02708 0.147066 -0.443383
2009-06-05 06:42:42 51°14.435 2°54.845 20.2043 0.025846 0.140365 -0.443383
2009-06-05 06:42:47 51°14.441 2°54.823 20.178 0.02636 0.143168 -0.443383
2009-06-05 06:42:52 51°14.447 2°54.8 20.1443 0.026051 0.141498 -0.443383
2009-06-05 06:42:57 51°14.453 2°54.777 20.177 0.026051 0.141498 -0.443383
2009-06-05 06:43:02 51°14.46 2°54.754 20.1899 0.025846 0.140384 -0.443383
2009-06-05 06:43:07 51°14.466 2°54.731 20.1625 0.026463 0.143746 -0.443383
2009-06-05 06:43:12 51°14.472 2°54.707 20.1974 0.026463 0.143798 -0.443383
2009-06-05 06:43:17 51°14.479 2°54.683 20.1733 0.025846 0.140451 -0.443383
2009-06-05 06:43:22 51°14.485 2°54.659 20.1674 0.02564 0.139347 -0.443383
2009-06-05 06:43:27 51°14.492 2°54.636 20.1526 0.02564 0.139347 -0.443383
2009-06-05 06:43:32 51°14.498 2°54.611 20.1745 0.025331 0.137666 -0.443383
2009-06-05 06:43:37 51°14.504 2°54.587 20.1444 0.025537 0.13877 -0.443383
2009-06-05 06:43:42 51°14.51 2°54.563 20.1813 0.025743 0.139907 -0.478207
2009-06-05 06:43:47 51°14.517 2°54.538 20.1292 0.025537 0.138789 -0.443383
2009-06-05 06:43:52 51°14.523 2°54.514 20.1504 0.025434 0.138224 -0.478207
2009-06-05 06:43:57 51°14.529 2°54.489 20.1779 0.025434 0.138224 -0.478207
2009-06-05 06:44:02 51°14.535 2°54.465 20.1841 0.02564 0.139347 -0.443383
2009-06-05 06:44:07 51°14.542 2°54.441 20.1682 0.02564 0.139342 -0.443383
2009-06-05 06:44:12 51°14.548 2°54.416 20.1711 0.02564 0.139342 -0.443383
2009-06-05 06:44:17 51°14.554 2°54.391 20.1777 0.025125 0.136556 -0.443383
2009-06-05 06:44:22 51°14.561 2°54.367 20.1928 0.026154 0.142167 -0.443383
2009-06-05 06:44:27 51°14.568 2°54.343 20.1953 0.026154 0.142167 -0.443383
2009-06-05 06:44:32 51°14.574 2°54.319 20.1426 0.025948 0.141073 -0.443383
2009-06-05 06:44:37 51°14.581 2°54.295 20.1926 0.025434 0.138272 -0.443383
2009-06-05 06:44:42 51°14.588 2°54.272 20.132 0.025743 0.140031 -0.443383
2009-06-05 06:44:47 51°14.595 2°54.248 20.1958 0.025434 0.138316 -0.443383
2009-06-05 06:44:52 51°14.601 2°54.224 20.19 0.025434 0.138316 -0.443383
2009-06-05 06:44:57 51°14.608 2°54.2 20.1904 0.025948 0.14113 -0.443383
2009-06-05 06:45:02 51°14.615 2°54.177 20.1538 0.026257 0.142847 -0.443383
2009-06-05 06:45:07 51°14.621 2°54.153 20.1606 0.025743 0.140133 -0.443383
2009-06-05 06:45:12 51°14.627 2°54.128 20.2022 0.025846 0.140634 -0.443383
2009-06-05 06:45:17 51°14.633 2°54.104 20.2101 0.025434 0.138396 -0.443383
2009-06-05 06:45:22 51°14.639 2°54.08 20.2044 0.02564 0.139558 -0.443383
2009-06-05 06:45:27 51°14.645 2°54.055 20.1726 0.02564 0.139558 -0.443383
2009-06-05 06:45:32 51°14.65 2°54.031 20.1569 0.02564 0.139665 -0.443383
2009-06-05 06:45:37 51°14.657 2°54.007 20.1992 0.025331 0.138141 -0.443383
2009-06-05 06:45:42 51°14.663 2°53.983 20.1324 0.025331 0.138194 -0.443383
2009-06-05 06:45:47 51°14.668 2°53.959 20.1922 0.025125 0.13701 -0.443383
2009-06-05 06:45:52 51°14.674 2°53.934 20.2335 0.02883 0.157297 -0.443383
2009-06-05 06:45:57 51°14.68 2°53.91 19.1186 0.02883 0.157297 -0.443383
2009-06-05 06:46:02 51°14.686 2°53.885 18.7159 0.047456 0.26144 -0.129967
2009-06-05 06:46:07 51°14.691 2°53.861 18.5689 0.056718 0.313933 -0.199615
2009-06-05 06:46:12 51°14.696 2°53.836 18.3312 4.419615 32.431819 0.53169
2009-06-05 06:46:17 51°14.701 2°53.81 18.1735 4.400196 31.820645 1.82018
2009-06-05 06:46:22 51°14.707 2°53.786 18.1087 4.403932 31.825664 1.889828
2009-06-05 06:46:27 51°14.712 2°53.761 17.9953 4.403932 31.825664 1.889828
2009-06-05 06:46:32 51°14.717 2°53.736 17.9483 4.248987 30.746503 1.437116
2009-06-05 06:46:37 51°14.722 2°53.711 17.8938 4.097207 29.768048 1.158523
2009-06-05 06:46:42 51°14.727 2°53.685 17.8236 3.950661 28.800897 1.123699
2009-06-05 06:46:47 51°14.733 2°53.661 17.7916 3.82562 27.998651 1.228171
2009-06-05 06:46:52 51°14.738 2°53.636 17.6554 3.82562 27.998651 1.228171
2009-06-05 06:46:57 51°14.743 2°53.611 17.6106 3.749015 27.515161 1.367467
2009-06-05 06:47:02 51°14.748 2°53.586 17.5622 3.700509 27.206561 1.506764
2009-06-05 06:47:07 51°14.753 2°53.561 17.528 3.667656 27.030419 1.715708
2009-06-05 06:47:12 51°14.758 2°53.535 17.3952 3.641334 26.890885 1.924652
2009-06-05 06:47:17 51°14.763 2°53.511 17.3566 3.629832 26.850093 2.098773
2009-06-05 06:47:22 51°14.768 2°53.485 17.1896 3.628797 26.898336 2.516661
2009-06-05 06:47:27 51°14.774 2°53.46 17.1686 3.628797 26.898336 2.516661
2009-06-05 06:47:32 51°14.778 2°53.435 17.1492 3.64113 27.056957 2.864902
2009-06-05 06:47:37 51°14.783 2°53.41 17.0407 3.655951 27.23636 3.039022
2009-06-05 06:47:42 51°14.788 2°53.385 16.9755 3.670668 27.4147 3.456911
2009-06-05 06:47:47 51°14.793 2°53.359 16.9297 3.694403 27.667198 3.874799
2009-06-05 06:47:52 51°14.798 2°53.334 16.87 3.721145 27.951505 4.362336
2009-06-05 06:47:57 51°14.803 2°53.308 16.8918 3.721145 27.951505 4.362336
2009-06-05 06:48:02 51°14.808 2°53.283 16.8147 3.749339 28.253416 4.536456
2009-06-05 06:48:07 51°14.813 2°53.258 16.7677 3.769864 28.477476 4.745401
2009-06-05 06:48:12 51°14.819 2°53.233 16.7697 3.787799 28.70063 5.058817
2009-06-05 06:48:17 51°14.823 2°53.208 16.7016 3.801691 28.863965 5.163289
2009-06-05 06:48:22 51°14.829 2°53.183 16.6907 3.801691 28.863965 5.163289
2009-06-05 06:48:27 51°14.834 2°53.157 16.6555 3.815791 29.036603 5.198113
2009-06-05 06:48:32 51°14.84 2°53.132 16.6066 3.819109 29.097684 5.372234
2009-06-05 06:48:37 51°14.845 2°53.107 16.6247 3.830514 29.232169 5.441882
2009-06-05 06:48:42 51°14.85 2°53.082 16.5592 3.834246 29.297767 5.581178
2009-06-05 06:48:47 51°14.856 2°53.057 16.5567 3.850732 29.474991 5.790122
2009-06-05 06:48:52 51°14.861 2°53.032 16.5753 3.858923 29.576708 5.755298
2009-06-05 06:48:57 51°14.866 2°53.006 16.5774 3.858923 29.576708 5.755298
2009-06-05 06:49:02 51°14.871 2°52.981 16.5273 3.864315 29.648832 5.929418
2009-06-05 06:49:07 51°14.877 2°52.956 16.4912 3.876964 29.786705 6.033891
2009-06-05 06:49:12 51°14.882 2°52.932 16.492 3.875513 29.797657 6.068715
2009-06-05 06:49:17 51°14.887 2°52.906 16.4998 3.889096 29.939163 6.103539
2009-06-05 06:49:22 51°14.893 2°52.882 16.5084 3.889926 29.962561 6.068715
2009-06-05 06:49:27 51°14.898 2°52.857 16.4825 3.889926 29.962561 6.068715
2009-06-05 06:49:32 51°14.904 2°52.832 16.4667 3.894074 30.005365 6.138363
2009-06-05 06:49:37 51°14.908 2°52.807 16.4459 3.899466 30.070997 6.068715
2009-06-05 06:49:42 51°14.914 2°52.782 16.4535 3.903199 30.123696 6.068715
2009-06-05 06:49:47 51°14.919 2°52.757 16.4414 3.909213 30.188765 5.999067
2009-06-05 06:49:52 51°14.925 2°52.732 16.4205 3.907451 30.182762 5.929418
2009-06-05 06:49:57 51°14.931 2°52.708 16.3953 3.907451 30.182762 5.929418
2009-06-05 06:50:02 51°14.936 2°52.683 16.3834 3.912843 30.237063 5.929418
2009-06-05 06:50:07 51°14.942 2°52.658 16.3846 3.910251 30.225157 5.929418
2009-06-05 06:50:12 51°14.948 2°52.634 16.3763 3.920828 30.327206 5.824946
2009-06-05 06:50:17 51°14.954 2°52.609 16.3748 3.921968 30.345009 5.894594
2009-06-05 06:50:22 51°14.96 2°52.585 16.3629 3.921968 30.345009 5.894594
2009-06-05 06:50:27 51°14.966 2°52.561 16.3591 3.924976 30.381363 5.824946
2009-06-05 06:50:32 51°14.972 2°52.537 16.3505 3.928398 30.425637 5.790122
2009-06-05 06:50:37 51°14.978 2°52.513 16.3572 3.930057 30.451048 5.790122
2009-06-05 06:50:42 51°14.985 2°52.489 16.3322 3.934827 30.501471 5.790122
2009-06-05 06:50:47 51°14.991 2°52.465 16.3333 3.929124 30.459052 5.790122
2009-06-05 06:50:52 51°14.998 2°52.442 16.3274 3.937213 30.536297 5.755298
2009-06-05 06:50:57 51°15.005 2°52.419 16.3112 3.937213 30.536297 5.755298
2009-06-05 06:51:02 51°15.012 2°52.396 16.3007 3.940842 30.574463 5.824946
2009-06-05 06:51:07 51°15.02 2°52.373 16.3041 3.940635 30.580119 5.755298
2009-06-05 06:51:12 51°15.027 2°52.35 16.2867 3.943539 30.61018 5.824946
2009-06-05 06:51:17 51°15.034 2°52.326 16.2827 3.945509 30.634673 5.790122
2009-06-05 06:51:22 51°15.041 2°52.303 16.2862 3.944161 30.630485 5.790122
2009-06-05 06:51:27 51°15.049 2°52.28 16.2805 3.944161 30.630485 5.790122
2009-06-05 06:51:32 51°15.056 2°52.256 16.2751 3.950902 30.696886 5.755298
2009-06-05 06:51:37 51°15.064 2°52.233 16.2788 3.951835 30.713701 5.720474
2009-06-05 06:51:42 51°15.071 2°52.209 16.263 3.954117 30.741572 5.720474
2009-06-05 06:51:47 51°15.078 2°52.185 16.2699 3.954428 30.749894 5.650826
2009-06-05 06:51:52 51°15.086 2°52.162 16.2578 3.954428 30.749894 5.650826
2009-06-05 06:51:57 51°15.093 2°52.138 16.2554 3.954117 30.752205 5.581178
2009-06-05 06:52:02 51°15.1 2°52.114 16.2599 3.956295 30.777955 5.51153
2009-06-05 06:52:07 51°15.108 2°52.091 16.239 3.954843 30.769135 5.476706
2009-06-05 06:52:12 51°15.115 2°52.068 16.2535 3.954739 30.770115 5.407058
2009-06-05 06:52:17 51°15.123 2°52.045 16.2458 3.963035 30.845149 5.267761
2009-06-05 06:52:22 51°15.13 2°52.022 16.2308 3.962932 30.849903 5.267761
2009-06-05 06:52:27 51°15.137 2°51.998 16.2291 3.962932 30.849903 5.267761
2009-06-05 06:52:32 51°15.145 2°51.975 16.2393 3.961273 30.841171 5.267761
2009-06-05 06:52:37 51°15.152 2°51.951 16.2192 3.963139 30.8605 5.163289
2009-06-05 06:52:42 51°15.16 2°51.927 16.2176 3.962725 30.861304 5.163289
2009-06-05 06:52:47 51°15.167 2°51.904 16.2249 3.963969 30.875243 5.128465
2009-06-05 06:52:52 51°15.174 2°51.88 16.2192 3.963451 30.875149 5.058817
2009-06-05 06:52:57 51°15.181 2°51.856 16.2207 3.963451 30.875149 5.058817
2009-06-05 06:53:02 51°15.188 2°51.832 16.2068 3.965006 30.893682 5.128465
2009-06-05 06:53:07 51°15.195 2°51.808 16.2073 3.966355 30.908532 5.058817
2009-06-05 06:53:12 51°15.202 2°51.785 16.2111 3.962829 30.883599 5.093641
2009-06-05 06:53:17 51°15.21 2°51.761 16.2057 3.968429 30.934734 5.058817
2009-06-05 06:53:22 51°15.217 2°51.737 16.2039 3.968429 30.934734 5.058817
2009-06-05 06:53:27 51°15.225 2°51.714 16.2107 3.969051 30.943292 5.058817
2009-06-05 06:53:32 51°15.231 2°51.69 16.1972 3.968014 30.93618 4.919521
2009-06-05 06:53:37 51°15.239 2°51.666 16.1904 3.96874 30.946271 4.989169
2009-06-05 06:53:42 51°15.245 2°51.642 16.1891 3.970607 30.964379 4.919521
2009-06-05 06:53:47 51°15.25 2°51.617 16.1877 3.969362 30.954833 5.023993
2009-06-05 06:53:52 51°15.255 2°51.592 16.1814 3.969362 30.954833 5.023993
2009-06-05 06:53:57 51°15.26 2°51.566 16.1928 3.97071 30.969071 4.989169
2009-06-05 06:54:02 51°15.265 2°51.541 16.1823 3.966977 30.938534 4.954345
2009-06-05 06:54:07 51°15.27 2°51.515 16.1884 3.966874 30.941422 4.919521
2009-06-05 06:54:12 51°15.275 2°51.489 16.1791 3.968637 30.961162 4.849873
2009-06-05 06:54:18 51°15.28 2°51.457 16.1794 3.970088 30.97694 4.849873
2009-06-05 06:54:22 51°15.283 2°51.436 16.1741 3.967496 30.958201 4.919521
2009-06-05 06:54:27 51°15.287 2°51.409 16.1822 3.967496 30.958201 4.919521
2009-06-05 06:54:32 51°15.29 2°51.382 16.1751 3.964696 30.934499 5.128465
2009-06-05 06:54:37 51°15.294 2°51.356 16.1801 3.965007 30.938466 4.884697
2009-06-05 06:54:42 51°15.297 2°51.329 16.173 3.958163 30.880883 4.745401
2009-06-05 06:54:47 51°15.301 2°51.302 16.1701 3.96117 30.908909 4.745401
2009-06-05 06:54:52 51°15.306 2°51.276 16.1708 3.959718 30.897554 4.710577
2009-06-05 06:54:57 51°15.309 2°51.249 16.1648 3.959718 30.897554 4.710577
2009-06-05 06:55:02 51°15.313 2°51.222 16.1624 3.963659 30.933699 4.710577
2009-06-05 06:55:07 51°15.317 2°51.195 16.1547 3.972266 31.009163 4.710577
2009-06-05 06:55:12 51°15.32 2°51.168 16.1634 3.972267 31.009797 4.675753
2009-06-05 06:55:17 51°15.324 2°51.142 16.1533 3.973926 31.027395 4.640929
2009-06-05 06:55:22 51°15.327 2°51.116 16.1644 3.973926 31.027395 4.640929
2009-06-05 06:55:27 51°15.331 2°51.089 16.1557 3.96957 30.992049 4.606104
2009-06-05 06:55:32 51°15.334 2°51.063 16.1575 3.973096 31.02525 4.640929
2009-06-05 06:55:37 51°15.338 2°51.037 16.1578 3.9704 31.004966 4.640929
2009-06-05 06:55:42 51°15.342 2°51.01 16.1647 3.970193 31.005696 4.536456
2009-06-05 06:55:47 51°15.345 2°50.984 16.1603 3.97237 31.02591 4.536456
2009-06-05 06:55:52 51°15.348 2°50.958 16.1604 3.971437 31.018424 4.431984
2009-06-05 06:55:57 51°15.353 2°50.932 16.1601 3.971437 31.018424 4.431984
2009-06-05 06:56:02 51°15.356 2°50.906 16.1592 3.970504 31.011572 4.362336
2009-06-05 06:56:07 51°15.36 2°50.88 16.1602 3.969363 31.002281 4.257864
2009-06-05 06:56:12 51°15.364 2°50.854 16.1772 3.971126 31.016351 4.22304
2009-06-05 06:56:17 51°15.368 2°50.828 16.1637 3.983156 31.1204 4.083744
2009-06-05 06:56:22 51°15.372 2°50.802 16.1601 3.984608 31.133038 4.014096
2009-06-05 06:56:27 51°15.375 2°50.777 16.1705 3.984608 31.133038 4.014096
2009-06-05 06:56:32 51°15.379 2°50.751 16.1603 3.985852 31.143871 3.979271
2009-06-05 06:56:37 51°15.382 2°50.725 16.1584 3.986475 31.149287 3.909623
2009-06-05 06:56:42 51°15.386 2°50.699 16.1631 3.986889 31.151625 3.874799
2009-06-05 06:56:47 51°15.39 2°50.673 16.1663 3.986786 31.150085 3.770327
2009-06-05 06:56:52 51°15.393 2°50.647 16.1572 3.987304 31.154599 3.770327
2009-06-05 06:56:57 51°15.397 2°50.622 16.1632 3.987304 31.154599 3.770327
2009-06-05 06:57:02 51°15.401 2°50.595 16.1635 3.987615 31.157308 3.735503
2009-06-05 06:57:07 51°15.405 2°50.57 16.1633 3.988134 31.163095 3.735503
2009-06-05 06:57:12 51°15.409 2°50.544 16.1636 3.988756 31.16915 3.665855
2009-06-05 06:57:17 51°15.413 2°50.518 16.1628 3.989067 31.172496 3.735503
2009-06-05 06:57:22 51°15.417 2°50.492 16.162 3.989067 31.172496 3.735503
2009-06-05 06:57:27 51°15.421 2°50.466 16.1631 3.989067 31.172496 3.770327
2009-06-05 06:57:32 51°15.424 2°50.44 16.1589 3.989482 31.176107 3.665855
2009-06-05 06:57:37 51°15.429 2°50.414 16.1638 3.989482 31.17547 3.631031
2009-06-05 06:57:42 51°15.432 2°50.388 16.1623 3.990001 31.179985 3.631031
2009-06-05 06:57:47 51°15.436 2°50.362 16.163 3.990001 31.179985 3.596207
2009-06-05 06:57:52 51°15.44 2°50.336 16.1635 3.990519 31.185137 3.561383
2009-06-05 06:57:57 51°15.444 2°50.31 16.1607 3.990519 31.185137 3.561383
2009-06-05 06:58:02 51°15.447 2°50.283 16.1624 3.990623 31.186677 3.526559
2009-06-05 06:58:07 51°15.451 2°50.258 16.1596 3.991038 31.190927 3.491735
2009-06-05 06:58:12 51°15.455 2°50.231 16.1636 3.991142 31.19183 3.561383
2009-06-05 06:58:17 51°15.459 2°50.205 16.1612 3.991556 31.194804 3.491735
2009-06-05 06:58:22 51°15.462 2°50.179 16.1699 3.99166 31.196345 3.456911
2009-06-05 06:58:27 51°15.467 2°50.153 16.1682 3.99166 31.196345 3.456911
2009-06-05 06:58:32 51°15.471 2°50.127 16.1626 3.992593 31.204473 3.491735
2009-06-05 06:58:37 51°15.475 2°50.1 16.1612 3.992386 31.203304 3.491735
2009-06-05 06:58:42 51°15.478 2°50.074 16.1646 3.993112 31.209626 3.456911
2009-06-05 06:58:47 51°15.482 2°50.048 16.1634 3.993008 31.208723 3.456911
2009-06-05 06:58:52 51°15.487 2°50.022 16.1603 3.993008 31.208723 3.456911
2009-06-05 06:58:57 51°15.491 2°49.996 16.1577 3.993319 31.210156 3.456911
2009-06-05 06:59:02 51°15.495 2°49.97 16.1588 3.993112 31.207074 3.491735
2009-06-05 06:59:07 51°15.499 2°49.944 16.1556 3.994045 31.21584 3.491735
2009-06-05 06:59:12 51°15.504 2°49.918 16.1545 3.994357 31.220464 3.596207
2009-06-05 06:59:17 51°15.508 2°49.892 16.1566 3.994149 31.218658 3.491735
2009-06-05 06:59:22 51°15.513 2°49.866 16.1584 3.994149 31.218658 3.491735
2009-06-05 06:59:27 51°15.516 2°49.839 16.1578 3.969778 31.007158 3.491735
2009-06-05 06:59:32 51°15.52 2°49.813 16.1541 3.995083 31.228063 3.491735
2009-06-05 06:59:37 51°15.525 2°49.788 16.1576 3.99529 31.231147 3.491735
2009-06-05 06:59:42 51°15.529 2°49.761 16.1557 3.996016 31.239386 3.491735
2009-06-05 06:59:47 51°15.533 2°49.736 16.1548 3.99612 31.240928 3.456911
2009-06-05 06:59:52 51°15.537 2°49.71 16.1533 3.996742 31.246348 3.422087
2009-06-05 06:59:57 51°15.542 2°49.684 16.1637 3.996742 31.246348 3.422087
2009-06-05 07:00:02 51°15.545 2°49.658 16.156 3.996535 31.243903 3.387263
2009-06-05 07:00:07 51°15.55 2°49.632 16.1583 3.997157 31.249962 3.387263
2009-06-05 07:00:12 51°15.553 2°49.606 16.1562 3.997572 31.253576 3.422087
2009-06-05 07:00:17 51°15.558 2°49.58 16.1622 3.997779 31.256022 3.352439
2009-06-05 07:00:22 51°15.562 2°49.554 16.1619 3.998401 31.262082 3.317614
2009-06-05 07:00:27 51°15.566 2°49.528 16.1585 3.998401 31.262082 3.317614
2009-06-05 07:00:32 51°15.57 2°49.503 16.1583 3.998505 31.261707 3.387263
2009-06-05 07:00:37 51°15.575 2°49.477 16.1574 3.997987 31.255911 3.387263
2009-06-05 07:00:42 51°15.579 2°49.451 16.1616 3.998712 31.262875 3.317614
2009-06-05 07:00:47 51°15.583 2°49.425 16.1602 3.99809 31.256815 3.352439
2009-06-05 07:00:52 51°15.587 2°49.399 16.1621 3.99809 31.256815 3.352439
2009-06-05 07:00:57 51°15.591 2°49.374 16.1646 3.998609 31.260693 3.352439
2009-06-05 07:01:02 51°15.596 2°49.349 16.1653 3.999024 31.264306 3.317614
2009-06-05 07:01:07 51°15.599 2°49.323 16.1638 3.99892 31.264042 3.317614
2009-06-05 07:01:12 51°15.603 2°49.297 16.1663 3.999335 31.268295 3.317614
2009-06-05 07:01:17 51°15.608 2°49.272 16.1678 3.99892 31.264042 3.247966
2009-06-05 07:01:22 51°15.612 2°49.246 16.1649 3.999335 31.266377 3.247966
2009-06-05 07:01:27 51°15.615 2°49.22 16.1678 3.999335 31.266377 3.247966
2009-06-05 07:01:32 51°15.619 2°49.195 16.1677 3.998816 31.260582 3.247966
2009-06-05 07:01:37 51°15.623 2°49.169 16.1655 3.999024 31.262389 3.28279
2009-06-05 07:01:42 51°15.627 2°49.143 16.1681 3.999024 31.26175 3.247966
2009-06-05 07:01:47 51°15.631 2°49.118 16.167 3.999127 31.262014 3.213142
2009-06-05 07:01:52 51°15.635 2°49.092 16.1741 3.999127 31.262014 3.213142
2009-06-05 07:01:57 51°15.639 2°49.067 16.1715 3.999127 31.262014 3.213142
2009-06-05 07:02:02 51°15.643 2°49.041 16.173 3.999127 31.262014 3.213142
2009-06-05 07:02:07 51°15.647 2°49.015 16.1698 3.999231 31.262278 3.178318
2009-06-05 07:02:12 51°15.652 2°48.99 16.1736 3.998816 31.258665 3.178318
2009-06-05 07:02:17 51°15.656 2°48.965 16.1707 3.998816 31.258665 3.143494
2009-06-05 07:02:22 51°15.66 2°48.939 16.1724 3.998816 31.258665 3.143494
2009-06-05 07:02:27 51°15.664 2°48.914 16.1757 3.998816 31.256748 3.213142
2009-06-05 07:02:32 51°15.668 2°48.888 16.1772 3.99892 31.257012 3.213142
2009-06-05 07:02:37 51°15.672 2°48.863 16.1767 3.999023 31.257276 3.143494
2009-06-05 07:02:42 51°15.674 2°48.837 16.1811 3.999023 31.257276 3.143494
2009-06-05 07:02:47 51°15.677 2°48.811 16.1815 3.999231 31.258444 3.178318
2009-06-05 07:02:52 51°15.679 2°48.785 16.1772 3.999231 31.258444 3.143494
2009-06-05 07:02:57 51°15.681 2°48.759 16.1781 3.999231 31.258444 3.143494
2009-06-05 07:03:02 51°15.683 2°48.733 16.1744 3.99892 31.254456 3.10867
2009-06-05 07:03:07 51°15.684 2°48.706 16.1801 3.998816 31.252915 3.10867
2009-06-05 07:03:12 51°15.685 2°48.679 16.1771 3.999023 31.253443 3.073846
2009-06-05 07:03:17 51°15.686 2°48.653 16.1798 3.998816 31.250998 3.143494
2009-06-05 07:03:22 51°15.686 2°48.626 16.18 3.999023 31.252166 3.10867
2009-06-05 07:03:27 51°15.687 2°48.599 16.1793 3.999023 31.252166 3.10867
2009-06-05 07:03:32 51°15.686 2°48.572 16.18 3.999127 31.253708 3.10867
2009-06-05 07:03:37 51°15.687 2°48.545 16.1822 3.998712 31.250734 3.143494
2009-06-05 07:03:42 51°15.686 2°48.518 16.1808 3.99892 31.25254 3.039022
2009-06-05 07:03:47 51°15.685 2°48.491 16.1795 3.99892 31.251901 3.073846
2009-06-05 07:03:52 51°15.685 2°48.464 16.1823 3.999023 31.252166 3.039022
2009-06-05 07:03:57 51°15.685 2°48.437 16.1833 3.999023 31.252166 3.039022
2009-06-05 07:04:02 51°15.685 2°48.41 16.1841 3.998609 31.247915 3.10867
2009-06-05 07:04:07 51°15.684 2°48.383 16.1844 3.998609 31.247276 3.039022
2009-06-05 07:04:12 51°15.684 2°48.356 16.1859 3.999231 31.252695 3.073846
2009-06-05 07:04:17 51°15.683 2°48.328 16.1818 3.998609 31.247276 3.039022
2009-06-05 07:04:22 51°15.684 2°48.301 16.1851 3.998609 31.247276 3.039022
2009-06-05 07:04:27 51°15.683 2°48.274 16.1841 3.999127 31.251791 3.039022
2009-06-05 07:04:32 51°15.682 2°48.247 16.1839 3.999231 31.251417 3.039022
2009-06-05 07:04:37 51°15.682 2°48.219 16.1855 3.99892 31.24807 3.004198
2009-06-05 07:04:42 51°15.681 2°48.192 16.1848 3.999334 31.251043 3.004198
2009-06-05 07:04:47 51°15.681 2°48.165 16.1851 3.999334 31.251043 3.039022
2009-06-05 07:04:52 51°15.681 2°48.138 16.1853 3.999438 31.251946 2.969374
2009-06-05 07:04:57 51°15.683 2°48.11 16.1886 3.999438 31.251946 2.969374
2009-06-05 07:05:02 51°15.684 2°48.083 16.187 3.999749 31.254655 3.004198
2009-06-05 07:05:07 51°15.685 2°48.056 16.188 3.999853 31.255558 2.969374
2009-06-05 07:05:12 51°15.687 2°48.029 16.1889 3.999957 31.255822 2.93455
2009-06-05 07:05:17 51°15.689 2°48.002 16.1821 3.999853 31.254281 2.969374
2009-06-05 07:05:22 51°15.69 2°47.975 16.1855 4.000372 31.258157 2.93455
2009-06-05 07:05:27 51°15.693 2°47.948 16.1837 4.000372 31.258157 2.93455
2009-06-05 07:05:32 51°15.695 2°47.922 16.186 4.000475 31.25906 3.004198
2009-06-05 07:05:37 51°15.697 2°47.895 16.1835 4.000579 31.259963 2.93455
2009-06-05 07:05:42 51°15.701 2°47.869 16.1817 4.000475 31.258421 2.969374
2009-06-05 07:05:47 51°15.704 2°47.843 16.1802 4.000683 31.260866 2.969374
2009-06-05 07:05:52 51°15.708 2°47.817 16.1812 4.000786 31.262407 2.969374
2009-06-05 07:05:57 51°15.712 2°47.791 16.1773 4.000786 31.262407 2.969374
2009-06-05 07:06:02 51°15.716 2°47.765 16.1777 4.001305 31.266923 2.93455
2009-06-05 07:06:07 51°15.721 2°47.739 16.1717 4.001098 31.265755 2.93455
2009-06-05 07:06:12 51°15.725 2°47.713 16.1755 4.001927 31.273619 2.93455
2009-06-05 07:06:17 51°15.73 2°47.687 16.1727 4.00172 31.273091 2.93455
2009-06-05 07:06:22 51°15.735 2°47.661 16.1739 4.00172 31.273091 2.93455
2009-06-05 07:06:27 51°15.74 2°47.636 16.1746 4.002031 31.2758 2.864902
2009-06-05 07:06:32 51°15.745 2°47.61 16.1675 4.002238 31.278885 2.864902
2009-06-05 07:06:37 51°15.749 2°47.585 16.1646 4.00255 31.282234 2.93455
2009-06-05 07:06:42 51°15.755 2°47.559 16.1604 4.002757 31.285958 2.899726
2009-06-05 07:06:47 51°15.759 2°47.533 16.1583 4.003068 31.289308 2.93455
2009-06-05 07:06:52 51°15.764 2°47.507 16.1542 4.003172 31.29149 2.864902
2009-06-05 07:06:57 51°15.77 2°47.482 16.1575 4.003172 31.29149 2.864902
2009-06-05 07:07:02 51°15.774 2°47.456 16.1543 4.003587 31.296383 2.93455
2009-06-05 07:07:07 51°15.779 2°47.43 16.1457 4.003898 31.300373 2.864902
2009-06-05 07:07:12 51°15.784 2°47.404 16.1438 4.004313 31.307826 2.830078
2009-06-05 07:07:17 51°15.789 2°47.378 16.1387 4.004624 31.313098 2.899726
2009-06-05 07:07:22 51°15.793 2°47.352 16.1364 4.004728 31.316563 2.830078
2009-06-05 07:07:27 51°15.799 2°47.327 16.1372 4.004728 31.316563 2.830078
2009-06-05 07:07:32 51°15.804 2°47.301 16.1332 4.005143 31.3221 2.795254
2009-06-05 07:07:37 51°15.809 2°47.275 16.1306 4.005246 31.324925 2.795254
2009-06-05 07:07:42 51°15.813 2°47.249 16.1287 4.005454 31.329937 2.830078
2009-06-05 07:07:47 51°15.818 2°47.223 16.1197 4.00535 31.332237 2.830078
2009-06-05 07:07:51 51°15.824 2°47.203 16.1143 4.00535 31.332237 2.830078
2009-06-05 07:07:57 51°15.829 2°47.172 16.1062 4.005558 31.33661 2.795254
2009-06-05 07:08:02 51°15.834 2°47.147 16.1068 4.006076 31.343054 2.795254
2009-06-05 07:08:07 51°15.839 2°47.121 16.1058 4.006284 31.347428 2.795254
2009-06-05 07:08:12 51°15.844 2°47.096 16.0992 4.006906 31.354779 2.725606
2009-06-05 07:08:17 51°15.849 2°47.07 16.0898 4.007114 31.359797 2.795254
2009-06-05 07:08:22 51°15.855 2°47.045 16.088 4.007321 31.366742 2.725606
2009-06-05 07:08:27 51°15.86 2°47.019 16.0857 4.007321 31.366742 2.725606
2009-06-05 07:08:32 51°15.864 2°46.994 16.0843 4.008151 31.37976 2.830078
2009-06-05 07:08:37 51°15.87 2°46.969 16.0752 4.008047 31.382068 2.795254
2009-06-05 07:08:42 51°15.874 2°46.943 16.0683 4.008462 31.388902 2.76043
2009-06-05 07:08:47 51°15.88 2°46.918 16.0661 4.008981 31.397286 2.76043
2009-06-05 07:08:52 51°15.884 2°46.892 16.0693 4.008877 31.40024 2.76043
2009-06-05 07:08:57 51°15.89 2°46.867 16.062 4.008877 31.40024 2.76043
2009-06-05 07:09:02 51°15.894 2°46.841 16.0532 4.009396 31.409271 2.795254
2009-06-05 07:09:07 51°15.9 2°46.816 16.0543 4.009811 31.418043 2.795254
2009-06-05 07:09:12 51°15.904 2°46.79 16.041 4.010226 31.424241 2.830078
2009-06-05 07:09:17 51°15.91 2°46.766 16.0346 4.010537 31.430824 2.830078
2009-06-05 07:09:22 51°15.914 2°46.74 16.0348 4.010018 31.428227 2.830078
2009-06-05 07:09:27 51°15.92 2°46.715 16.0239 4.010018 31.428227 2.830078
2009-06-05 07:09:32 51°15.924 2°46.689 16.0165 4.01147 31.444778 2.864902
2009-06-05 07:09:37 51°15.93 2°46.664 16.0129 4.010952 31.444761 2.864902
2009-06-05 07:09:42 51°15.934 2°46.638 16.0076 4.012093 31.45989 2.899726
2009-06-05 07:09:47 51°15.94 2°46.614 16.0094 4.013026 31.473857 2.864902
2009-06-05 07:09:51 51°15.944 2°46.593 16.0015 4.013026 31.479024 2.93455
2009-06-05 07:09:57 51°15.95 2°46.563 15.9964 4.013026 31.479024 2.93455
2009-06-05 07:10:02 51°15.955 2°46.538 15.9952 4.01396 31.493647 2.899726
2009-06-05 07:10:07 51°15.96 2°46.513 15.9983 4.014271 31.501541 2.969374
2009-06-05 07:10:12 51°15.965 2°46.488 15.9922 4.014686 31.511638 2.969374
2009-06-05 07:10:17 51°15.97 2°46.462 15.9781 4.014997 31.518891 2.969374
2009-06-05 07:10:22 51°15.975 2°46.437 15.978 4.01479 31.520313 2.969374
2009-06-05 07:10:27 51°15.98 2°46.412 15.9711 4.01479 31.520313 2.969374
2009-06-05 07:10:32 51°15.985 2°46.387 15.9698 4.015412 31.529644 3.004198
2009-06-05 07:10:37 51°15.99 2°46.362 15.9662 4.015723 31.535606 3.073846
2009-06-05 07:10:42 51°15.995 2°46.337 15.9573 4.015827 31.539754 3.039022
2009-06-05 07:10:47 51°16 2°46.312 15.9585 4.016138 31.54507 3.073846
2009-06-05 07:10:52 51°16.006 2°46.287 15.9543 4.013235 31.524832 3.039022
2009-06-05 07:10:57 51°16.011 2°46.262 15.9471 4.013235 31.524832 3.039022
2009-06-05 07:11:02 51°16.017 2°46.239 15.9507 4.017072 31.562323 3.073846
2009-06-05 07:11:07 51°16.022 2°46.214 15.9421 4.017591 31.572057 3.073846
2009-06-05 07:11:12 51°16.028 2°46.189 15.9343 4.017383 31.574785 3.073846
2009-06-05 07:11:17 51°16.034 2°46.165 15.9384 4.018317 31.58621 3.039022
2009-06-05 07:11:22 51°16.04 2°46.141 15.9275 4.018835 31.594002 3.10867
2009-06-05 07:11:27 51°16.046 2°46.116 15.9242 4.018835 31.594002 3.10867
2009-06-05 07:11:32 51°16.052 2°46.093 15.9229 4.018732 31.597643 3.143494
2009-06-05 07:11:37 51°16.058 2°46.068 15.9202 4.01925 31.604789 3.143494
2009-06-05 07:11:42 51°16.064 2°46.044 15.9179 4.019043 31.606873 3.10867
2009-06-05 07:11:47 51°16.069 2°46.02 15.9193 4.021636 31.63416 3.178318
2009-06-05 07:11:51 51°16.074 2°46.001 15.9139 4.021636 31.63416 3.178318
2009-06-05 07:11:57 51°16.081 2°45.972 15.9059 4.022051 31.641705 3.213142
2009-06-05 07:12:02 51°16.088 2°45.949 15.9058 4.022362 31.648342 3.143494
2009-06-05 07:12:07 51°16.094 2°45.925 15.9023 4.022466 31.651859 3.178318
2009-06-05 07:12:12 51°16.1 2°45.901 15.8955 4.022777 31.657847 3.247966
2009-06-05 07:12:17 51°16.106 2°45.877 15.8964 4.022881 31.661365 3.247966
2009-06-05 07:12:22 51°16.113 2°45.853 15.9001 4.023296 31.667614 3.213142
2009-06-05 07:12:27 51°16.12 2°45.831 15.8924 4.023296 31.667614 3.213142
2009-06-05 07:12:32 51°16.126 2°45.807 15.8927 4.023607 31.674258 3.247966
2009-06-05 07:12:37 51°16.134 2°45.785 15.8831 4.023815 31.679994 3.247966
2009-06-05 07:12:42 51°16.14 2°45.761 15.8819 4.024022 31.683773 3.317614
2009-06-05 07:12:47 51°16.148 2°45.739 15.8743 4.02423 31.688858 3.213142
2009-06-05 07:12:52 51°16.155 2°45.716 15.8743 4.02423 31.690164 3.28279
2009-06-05 07:12:57 51°16.163 2°45.694 15.8682 4.02423 31.690164 3.28279
2009-06-05 07:13:02 51°16.17 2°45.671 15.8687 4.024541 31.694202 3.28279
2009-06-05 07:13:07 51°16.177 2°45.649 15.8652 4.024852 31.699547 3.28279
2009-06-05 07:13:12 51°16.185 2°45.626 15.8617 4.025371 31.709329 3.28279
2009-06-05 07:13:17 51°16.192 2°45.604 15.8625 4.025578 31.714419 3.317614
2009-06-05 07:13:22 51°16.199 2°45.581 15.8583 4.025578 31.714419 3.317614
2009-06-05 07:13:27 51°16.207 2°45.558 15.8542 4.025786 31.719511 3.317614
2009-06-05 07:13:32 51°16.214 2°45.536 15.8504 4.025993 31.724604 3.352439
2009-06-05 07:13:37 51°16.221 2°45.513 15.8497 4.026201 31.729044 3.317614
2009-06-05 07:13:42 51°16.229 2°45.491 15.8464 4.026304 31.733882 3.422087
2009-06-05 07:13:47 51°16.236 2°45.468 15.854 4.026512 31.738323 3.387263
2009-06-05 07:13:52 51°16.243 2°45.446 15.8406 4.026719 31.742766 3.422087
2009-06-05 07:13:57 51°16.25 2°45.423 15.8433 4.026719 31.742766 3.422087
2009-06-05 07:14:02 51°16.257 2°45.401 15.8389 4.026927 31.747209 3.491735
2009-06-05 07:14:07 51°16.264 2°45.378 15.8396 4.027134 31.751652 3.456911
2009-06-05 07:14:12 51°16.272 2°45.356 15.8315 4.027342 31.756097 3.491735
2009-06-05 07:14:17 51°16.279 2°45.333 15.8313 4.027549 31.759887 3.491735
2009-06-05 07:14:22 51°16.286 2°45.31 15.8279 4.027757 31.764333 3.456911
2009-06-05 07:14:27 51°16.293 2°45.287 15.8277 4.027757 31.764333 3.456911
2009-06-05 07:14:32 51°16.3 2°45.265 15.8278 4.027964 31.76878 3.491735
2009-06-05 07:14:37 51°16.308 2°45.241 15.8264 4.028275 31.772827 3.561383
2009-06-05 07:14:42 51°16.314 2°45.219 15.8314 4.028586 31.776875 3.561383
2009-06-05 07:14:47 51°16.321 2°45.196 15.8307 4.028794 31.781981 3.631031
2009-06-05 07:14:52 51°16.329 2°45.174 15.8271 4.029001 31.78643 3.561383
2009-06-05 07:14:57 51°16.336 2°45.151 15.8276 4.029001 31.78643 3.561383
2009-06-05 07:15:02 51°16.343 2°45.128 15.8268 4.029105 31.789968 3.561383
2009-06-05 07:15:07 51°16.349 2°45.105 15.8298 4.029209 31.792194 3.631031